Time,TemperatureF,DewpointF,PressureIn,WindDirection,WindDirectionDegrees,WindSpeedMPH,WindSpeedGustMPH,Humidity,HourlyPrecipIn,Conditions,Clouds,dailyrainin,SoftwareType,DateUTC
2013-05-04 00:02:00,55.4,54.8,29.83,NNW,345,0.0,0.0,98,0.00,,---,0.00,VWS V14.01,2013-05-04 05:02:00,
2013-05-04 00:03:00,55.4,54.8,29.83,NNW,345,0.0,0.0,98,0.00,,---,0.00,VWS V14.01,2013-05-04 05:03:00,
2013-05-04 00:04:00,55.4,54.8,29.83,NNW,345,0.0,0.0,98,0.00,,---,0.00,VWS V14.01,2013-05-04 05:04:00,
2013-05-04 00:07:00,55.6,55.0,29.83,NNW,345,0.0,0.0,98,0.00,,---,0.00,VWS V14.01,2013-05-04 05:07:00,
2013-05-04 00:08:00,55.6,55.0,29.83,NNW,345,0.0,0.0,98,0.00,,---,0.00,VWS V14.01,2013-05-04 05:08:00,
2013-05-04 00:09:00,55.6,55.0,29.83,NNW,345,0.0,0.0,98,0.00,,---,0.00,VWS V14.01,2013-05-04 05:09:00,
2013-05-04 00:12:00,55.6,55.0,29.83,NNW,345,0.0,0.0,98,0.00,,---,0.00,VWS V14.01,2013-05-04 05:12:00,
2013-05-04 00:14:00,55.7,55.2,29.82,NNW,345,0.0,0.0,98,0.00,,---,0.00,VWS V14.01,2013-05-04 05:14:00,
2013-05-04 00:15:00,55.7,55.2,29.82,NNW,345,0.0,0.0,98,0.00,,---,0.00,VWS V14.01,2013-05-04 05:15:00,
2013-05-04 00:17:00,55.7,55.2,29.82,NNW,345,0.0,0.0,98,0.00,,---,0.00,VWS V14.01,2013-05-04 05:17:00,
2013-05-04 00:19:00,55.7,55.2,29.82,NNW,345,0.0,0.0,98,0.00,,---,0.00,VWS V14.01,2013-05-04 05:19:00,
2013-05-04 00:21:00,55.7,55.2,29.82,NNW,345,0.0,0.0,98,0.00,,---,0.00,VWS V14.01,2013-05-04 05:21:00,
2013-05-04 00:22:00,55.7,55.2,29.82,NNW,345,0.0,0.0,98,0.00,,---,0.00,VWS V14.01,2013-05-04 05:22:00,
2013-05-04 00:23:00,55.7,55.2,29.82,NNW,345,0.0,0.0,98,0.00,,---,0.00,VWS V14.01,2013-05-04 05:23:00,
2013-05-04 00:26:00,55.7,55.2,29.82,NNW,345,0.0,0.0,98,0.00,,---,0.00,VWS V14.01,2013-05-04 05:26:00,
2013-05-04 00:27:00,55.7,55.2,29.82,NNW,345,0.0,0.0,98,0.00,,---,0.00,VWS V14.01,2013-05-04 05:27:00,
2013-05-04 00:28:00,55.7,55.2,29.82,NNW,345,0.0,0.0,98,0.00,,---,0.00,VWS V14.01,2013-05-04 05:28:00,
2013-05-04 00:29:00,55.7,55.2,29.82,NNW,345,0.0,0.0,98,0.00,,---,0.00,VWS V14.01,2013-05-04 05:29:00,
2013-05-04 00:31:00,55.7,55.2,29.82,NNW,345,0.0,0.0,98,0.00,,---,0.00,VWS V14.01,2013-05-04 05:31:00,
2013-05-04 00:32:00,55.7,55.2,29.82,NNW,345,0.0,0.0,98,0.00,,---,0.00,VWS V14.01,2013-05-04 05:32:00,
2013-05-04 00:34:00,55.7,55.2,29.82,NNW,345,0.0,0.0,98,0.00,,---,0.00,VWS V14.01,2013-05-04 05:34:00,
2013-05-04 00:35:00,55.7,55.2,29.82,NNW,345,0.0,0.0,98,0.00,,---,0.00,VWS V14.01,2013-05-04 05:35:00,
2013-05-04 00:38:00,55.7,55.2,29.82,NNW,345,0.0,0.0,98,0.00,,---,0.00,VWS V14.01,2013-05-04 05:38:00,
2013-05-04 00:39:00,55.6,55.0,29.82,NNW,345,0.0,0.0,98,0.01,,---,0.01,VWS V14.01,2013-05-04 05:39:00,
2013-05-04 00:40:00,55.6,55.0,29.82,NNW,345,0.0,0.0,98,0.01,,---,0.01,VWS V14.01,2013-05-04 05:40:00,
2013-05-04 00:44:00,55.6,54.8,29.82,NNW,345,0.0,0.0,97,0.01,,---,0.01,VWS V14.01,2013-05-04 05:44:00,
2013-05-04 00:45:00,55.6,54.8,29.82,NNW,345,0.0,0.0,97,0.01,,---,0.01,VWS V14.01,2013-05-04 05:45:00,
2013-05-04 00:46:00,55.6,54.8,29.82,NNW,345,0.0,0.0,97,0.01,,---,0.01,VWS V14.01,2013-05-04 05:46:00,
2013-05-04 00:49:00,55.4,54.6,29.82,NNW,345,0.0,0.0,97,0.01,,---,0.01,VWS V14.01,2013-05-04 05:49:00,
2013-05-04 00:50:00,55.4,54.6,29.82,NNW,345,0.0,0.0,97,0.01,,---,0.01,VWS V14.01,2013-05-04 05:50:00,
2013-05-04 00:51:00,55.4,54.6,29.82,NNW,345,0.0,0.0,97,0.01,,---,0.01,VWS V14.01,2013-05-04 05:51:00,
2013-05-04 00:53:00,55.4,54.6,29.82,NNW,345,0.0,0.0,97,0.01,,---,0.01,VWS V14.01,2013-05-04 05:53:00,
2013-05-04 00:54:00,55.4,54.6,29.82,NNW,345,0.0,0.0,97,0.01,,---,0.01,VWS V14.01,2013-05-04 05:54:00,
2013-05-04 00:56:00,55.3,54.5,29.82,NNW,345,0.0,0.0,97,0.01,,---,0.01,VWS V14.01,2013-05-04 05:56:00,
2013-05-04 00:57:00,55.3,54.5,29.82,NNW,345,0.0,0.0,97,0.01,,---,0.01,VWS V14.01,2013-05-04 05:57:00,
2013-05-04 00:58:00,55.3,54.5,29.82,NNW,345,0.0,0.0,97,0.01,,---,0.01,VWS V14.01,2013-05-04 05:58:00,
2013-05-04 00:59:00,55.3,54.5,29.82,NNW,345,0.0,0.0,97,0.01,,---,0.01,VWS V14.01,2013-05-04 05:59:00,
2013-05-04 01:00:00,55.3,54.5,29.82,NNW,345,0.0,0.0,97,0.01,,---,0.01,VWS V14.01,2013-05-04 06:00:00,
2013-05-04 01:01:00,55.3,54.5,29.82,NNW,345,0.0,0.0,97,0.01,,---,0.01,VWS V14.01,2013-05-04 06:01:00,
2013-05-04 01:03:00,55.3,54.5,29.82,NNW,345,0.0,0.0,97,0.01,,---,0.01,VWS V14.01,2013-05-04 06:03:00,
2013-05-04 01:04:00,55.3,54.5,29.82,NNW,345,0.0,0.0,97,0.01,,---,0.01,VWS V14.01,2013-05-04 06:04:00,
2013-05-04 01:05:00,55.3,54.5,29.82,NNW,345,0.0,0.0,97,0.01,,---,0.01,VWS V14.01,2013-05-04 06:05:00,
2013-05-04 01:08:00,55.3,54.5,29.82,NNW,345,0.0,0.0,97,0.01,,---,0.01,VWS V14.01,2013-05-04 06:08:00,
2013-05-04 01:09:00,55.3,54.5,29.82,NNW,345,0.0,0.0,97,0.01,,---,0.01,VWS V14.01,2013-05-04 06:09:00,
2013-05-04 01:10:00,55.3,54.5,29.82,NNW,345,0.0,0.0,97,0.01,,---,0.01,VWS V14.01,2013-05-04 06:10:00,
2013-05-04 01:12:00,55.3,54.5,29.82,NNW,345,0.0,0.0,97,0.01,,---,0.01,VWS V14.01,2013-05-04 06:12:00,
2013-05-04 01:14:00,55.3,54.5,29.82,NNW,345,0.0,0.0,97,0.01,,---,0.01,VWS V14.01,2013-05-04 06:14:00,
2013-05-04 01:16:00,55.1,54.3,29.82,NNW,345,0.0,0.0,97,0.01,,---,0.01,VWS V14.01,2013-05-04 06:16:00,
2013-05-04 01:19:00,55.1,54.3,29.82,NNW,345,0.0,0.0,97,0.01,,---,0.01,VWS V14.01,2013-05-04 06:19:00,
2013-05-04 01:20:00,55.1,54.3,29.82,NNW,345,0.0,0.0,97,0.01,,---,0.01,VWS V14.01,2013-05-04 06:20:00,
2013-05-04 01:21:00,55.1,54.3,29.82,NNW,345,0.0,0.0,97,0.01,,---,0.01,VWS V14.01,2013-05-04 06:21:00,
2013-05-04 01:22:00,55.1,54.3,29.82,NNW,345,0.0,0.0,97,0.01,,---,0.01,VWS V14.01,2013-05-04 06:22:00,
2013-05-04 01:24:00,55.0,54.2,29.82,NNW,345,0.0,0.0,97,0.01,,---,0.01,VWS V14.01,2013-05-04 06:24:00,
2013-05-04 01:25:00,55.0,54.2,29.82,NNW,345,0.0,0.0,97,0.01,,---,0.01,VWS V14.01,2013-05-04 06:25:00,
2013-05-04 01:27:00,55.0,54.2,29.82,NNW,345,0.0,0.0,97,0.01,,---,0.01,VWS V14.01,2013-05-04 06:27:00,
2013-05-04 01:28:00,55.0,54.2,29.82,NNW,345,0.0,0.0,97,0.01,,---,0.01,VWS V14.01,2013-05-04 06:28:00,
2013-05-04 01:30:00,55.0,54.2,29.82,NNW,345,0.0,0.0,97,0.01,,---,0.01,VWS V14.01,2013-05-04 06:30:00,
2013-05-04 01:31:00,55.0,54.2,29.82,NNW,345,0.0,0.0,97,0.01,,---,0.01,VWS V14.01,2013-05-04 06:31:00,
2013-05-04 01:32:00,55.0,54.2,29.82,NNW,345,0.0,0.0,97,0.01,,---,0.01,VWS V14.01,2013-05-04 06:32:00,
2013-05-04 01:34:00,54.8,54.0,29.82,NNW,345,0.0,0.0,97,0.01,,---,0.01,VWS V14.01,2013-05-04 06:34:00,
2013-05-04 01:35:00,54.8,54.0,29.82,NNW,345,0.0,0.0,97,0.01,,---,0.01,VWS V14.01,2013-05-04 06:35:00,
2013-05-04 01:36:00,54.8,54.0,29.82,NNW,345,0.0,0.0,97,0.01,,---,0.01,VWS V14.01,2013-05-04 06:36:00,
2013-05-04 01:37:00,54.8,54.0,29.82,NNW,345,0.0,0.0,97,0.01,,---,0.01,VWS V14.01,2013-05-04 06:37:00,
2013-05-04 01:40:00,54.8,54.0,29.82,NNW,345,0.0,0.0,97,0.00,,---,0.01,VWS V14.01,2013-05-04 06:40:00,
2013-05-04 01:41:00,54.8,54.0,29.82,NNW,345,0.0,0.0,97,0.00,,---,0.01,VWS V14.01,2013-05-04 06:41:00,
2013-05-04 01:42:00,54.8,54.0,29.82,NNW,345,0.0,0.0,97,0.00,,---,0.01,VWS V14.01,2013-05-04 06:42:00,
2013-05-04 01:43:00,54.8,54.0,29.82,NNW,345,0.0,0.0,97,0.00,,---,0.01,VWS V14.01,2013-05-04 06:43:00,
2013-05-04 01:45:00,54.8,54.0,29.82,NNW,345,0.0,0.0,97,0.00,,---,0.01,VWS V14.01,2013-05-04 06:45:00,
2013-05-04 01:46:00,54.8,54.0,29.82,NNW,345,0.0,0.0,97,0.00,,---,0.01,VWS V14.01,2013-05-04 06:46:00,
2013-05-04 01:47:00,54.8,54.0,29.82,NNW,345,0.0,0.0,97,0.00,,---,0.01,VWS V14.01,2013-05-04 06:47:00,
2013-05-04 01:50:00,54.8,54.0,29.82,NNW,345,0.0,0.0,97,0.00,,---,0.01,VWS V14.01,2013-05-04 06:50:00,
2013-05-04 01:51:00,54.8,54.0,29.82,NNW,345,0.0,0.0,97,0.00,,---,0.01,VWS V14.01,2013-05-04 06:51:00,
2013-05-04 01:52:00,54.8,54.0,29.82,NNW,345,0.0,0.0,97,0.00,,---,0.01,VWS V14.01,2013-05-04 06:52:00,
2013-05-04 01:53:00,54.8,54.0,29.82,NNW,345,0.0,0.0,97,0.00,,---,0.01,VWS V14.01,2013-05-04 06:53:00,
2013-05-04 01:55:00,54.8,54.0,29.82,NNW,345,0.0,0.0,97,0.00,,---,0.01,VWS V14.01,2013-05-04 06:55:00,
2013-05-04 01:56:00,54.8,54.0,29.82,NNW,345,0.0,0.0,97,0.00,,---,0.01,VWS V14.01,2013-05-04 06:56:00,
2013-05-04 01:58:00,54.7,53.9,29.82,NNW,345,0.0,0.0,97,0.00,,---,0.01,VWS V14.01,2013-05-04 06:58:00,
2013-05-04 01:59:00,54.7,53.9,29.82,NNW,345,0.0,0.0,97,0.00,,---,0.01,VWS V14.01,2013-05-04 06:59:00,
2013-05-04 02:00:00,54.7,53.9,29.82,NNW,345,0.0,0.0,97,0.00,,---,0.01,VWS V14.01,2013-05-04 07:00:00,
2013-05-04 02:01:00,54.7,53.9,29.82,NNW,345,0.0,0.0,97,0.00,,---,0.01,VWS V14.01,2013-05-04 07:01:00,
2013-05-04 02:03:00,54.7,53.9,29.82,NNW,345,0.0,0.0,97,0.00,,---,0.01,VWS V14.01,2013-05-04 07:03:00,
2013-05-04 02:04:00,54.7,53.9,29.82,NNW,345,0.0,0.0,97,0.00,,---,0.01,VWS V14.01,2013-05-04 07:04:00,
2013-05-04 02:05:00,54.7,53.9,29.82,NNW,345,0.0,0.0,97,0.00,,---,0.01,VWS V14.01,2013-05-04 07:05:00,
2013-05-04 02:06:00,54.7,53.9,29.82,NNW,345,0.0,0.0,97,0.00,,---,0.01,VWS V14.01,2013-05-04 07:06:00,
2013-05-04 02:07:00,54.7,53.9,29.82,NNW,345,0.0,0.0,97,0.00,,---,0.01,VWS V14.01,2013-05-04 07:07:00,
2013-05-04 02:09:00,54.5,53.7,29.82,NNW,345,0.0,0.0,97,0.00,,---,0.01,VWS V14.01,2013-05-04 07:09:00,
2013-05-04 02:11:00,54.5,53.7,29.82,NNW,345,0.0,0.0,97,0.00,,---,0.01,VWS V14.01,2013-05-04 07:11:00,
2013-05-04 02:12:00,54.5,53.7,29.82,NNW,345,0.0,0.0,97,0.00,,---,0.01,VWS V14.01,2013-05-04 07:12:00,
2013-05-04 02:14:00,54.5,53.7,29.82,NNW,345,0.0,0.0,97,0.00,,---,0.01,VWS V14.01,2013-05-04 07:14:00,
2013-05-04 02:16:00,54.5,53.7,29.82,NNW,345,0.0,0.0,97,0.00,,---,0.01,VWS V14.01,2013-05-04 07:16:00,
2013-05-04 02:17:00,54.5,53.7,29.82,NNW,345,0.0,0.0,97,0.00,,---,0.01,VWS V14.01,2013-05-04 07:17:00,
2013-05-04 02:18:00,54.4,53.6,29.82,NNW,345,0.0,0.0,97,0.00,,---,0.01,VWS V14.01,2013-05-04 07:18:00,
2013-05-04 02:19:00,54.4,53.3,29.82,NNW,345,0.0,0.0,96,0.00,,---,0.01,VWS V14.01,2013-05-04 07:19:00,
2013-05-04 02:23:00,54.2,53.1,29.82,NNW,345,0.0,0.0,96,0.00,,---,0.01,VWS V14.01,2013-05-04 07:23:00,
2013-05-04 02:24:00,54.2,53.1,29.82,NNW,345,0.0,0.0,96,0.00,,---,0.01,VWS V14.01,2013-05-04 07:24:00,
2013-05-04 02:25:00,54.2,53.1,29.82,NNW,345,0.0,0.0,96,0.00,,---,0.01,VWS V14.01,2013-05-04 07:25:00,
2013-05-04 02:26:00,54.2,53.1,29.82,NNW,345,0.0,0.0,96,0.00,,---,0.01,VWS V14.01,2013-05-04 07:26:00,
2013-05-04 02:29:00,54.1,53.0,29.82,NNW,345,0.0,0.0,96,0.00,,---,0.01,VWS V14.01,2013-05-04 07:29:00,
2013-05-04 02:30:00,54.1,53.0,29.82,NNW,345,0.0,0.0,96,0.00,,---,0.01,VWS V14.01,2013-05-04 07:30:00,
2013-05-04 02:31:00,54.1,53.0,29.82,NNW,345,0.0,0.0,96,0.00,,---,0.01,VWS V14.01,2013-05-04 07:31:00,
2013-05-04 02:33:00,53.9,52.8,29.82,NNW,345,0.0,0.0,96,0.00,,---,0.01,VWS V14.01,2013-05-04 07:33:00,
2013-05-04 02:35:00,53.9,52.8,29.82,NNW,345,0.0,0.0,96,0.00,,---,0.01,VWS V14.01,2013-05-04 07:35:00,
2013-05-04 02:36:00,53.9,52.8,29.82,NNW,345,0.0,0.0,96,0.00,,---,0.01,VWS V14.01,2013-05-04 07:36:00,
2013-05-04 02:37:00,53.9,52.8,29.82,NNW,345,0.0,0.0,96,0.00,,---,0.01,VWS V14.01,2013-05-04 07:37:00,
2013-05-04 02:39:00,53.8,52.7,29.82,NNW,345,0.0,0.0,96,0.00,,---,0.01,VWS V14.01,2013-05-04 07:39:00,
2013-05-04 02:41:00,53.8,52.7,29.82,NNW,345,0.0,0.0,96,0.00,,---,0.01,VWS V14.01,2013-05-04 07:41:00,
2013-05-04 02:44:00,53.6,52.5,29.82,NNW,345,0.0,0.0,96,0.00,,---,0.01,VWS V14.01,2013-05-04 07:44:00,
2013-05-04 02:45:00,53.6,52.5,29.82,NNW,345,0.0,0.0,96,0.00,,---,0.01,VWS V14.01,2013-05-04 07:45:00,
2013-05-04 02:46:00,53.6,52.5,29.82,NNW,345,0.0,0.0,96,0.00,,---,0.01,VWS V14.01,2013-05-04 07:46:00,
2013-05-04 02:49:00,53.5,52.4,29.82,NNW,345,0.0,0.0,96,0.00,,---,0.01,VWS V14.01,2013-05-04 07:49:00,
2013-05-04 02:50:00,53.5,52.4,29.82,NNW,345,0.0,0.0,96,0.00,,---,0.01,VWS V14.01,2013-05-04 07:50:00,
2013-05-04 02:51:00,53.5,52.4,29.82,NNW,345,0.0,0.0,96,0.00,,---,0.01,VWS V14.01,2013-05-04 07:51:00,
2013-05-04 02:52:00,53.5,52.4,29.82,NNW,345,0.0,0.0,96,0.00,,---,0.01,VWS V14.01,2013-05-04 07:52:00,
2013-05-04 02:56:00,53.3,52.2,29.82,NNW,345,0.0,0.0,96,0.00,,---,0.01,VWS V14.01,2013-05-04 07:56:00,
2013-05-04 02:57:00,53.3,52.2,29.82,NNW,345,0.0,0.0,96,0.00,,---,0.01,VWS V14.01,2013-05-04 07:57:00,
2013-05-04 02:58:00,53.3,52.2,29.82,NNW,345,0.0,0.0,96,0.00,,---,0.01,VWS V14.01,2013-05-04 07:58:00,
2013-05-04 03:01:00,53.2,51.8,29.81,NNW,345,0.0,0.0,95,0.00,,---,0.01,VWS V14.01,2013-05-04 08:01:00,
2013-05-04 03:02:00,53.2,51.8,29.81,NNW,345,0.0,0.0,95,0.00,,---,0.01,VWS V14.01,2013-05-04 08:02:00,
2013-05-04 03:03:00,53.2,51.8,29.81,NNW,345,0.0,0.0,95,0.00,,---,0.01,VWS V14.01,2013-05-04 08:03:00,
2013-05-04 03:04:00,53.2,51.8,29.81,NNW,345,0.0,0.0,95,0.00,,---,0.01,VWS V14.01,2013-05-04 08:04:00,
2013-05-04 03:07:00,53.2,51.8,29.81,NNW,345,0.0,0.0,95,0.00,,---,0.01,VWS V14.01,2013-05-04 08:07:00,
2013-05-04 03:08:00,53.1,51.7,29.81,NNW,345,0.0,0.0,95,0.00,,---,0.01,VWS V14.01,2013-05-04 08:08:00,
2013-05-04 03:09:00,53.1,51.7,29.81,NNW,345,0.0,0.0,95,0.00,,---,0.01,VWS V14.01,2013-05-04 08:09:00,
2013-05-04 03:10:00,53.1,51.7,29.81,NNW,345,0.0,0.0,95,0.00,,---,0.01,VWS V14.01,2013-05-04 08:10:00,
2013-05-04 03:14:00,53.1,51.7,29.82,NNW,345,0.0,0.0,95,0.00,,---,0.01,VWS V14.01,2013-05-04 08:14:00,
2013-05-04 03:15:00,53.1,51.7,29.82,NNW,345,0.0,0.0,95,0.00,,---,0.01,VWS V14.01,2013-05-04 08:15:00,
2013-05-04 03:17:00,52.9,51.5,29.82,NNW,345,0.0,0.0,95,0.00,,---,0.01,VWS V14.01,2013-05-04 08:17:00,
2013-05-04 03:18:00,52.9,51.5,29.82,NNW,345,0.0,0.0,95,0.00,,---,0.01,VWS V14.01,2013-05-04 08:18:00,
2013-05-04 03:19:00,52.9,51.5,29.82,NNW,345,0.0,0.0,95,0.00,,---,0.01,VWS V14.01,2013-05-04 08:19:00,
2013-05-04 03:20:00,52.9,51.5,29.82,NNW,345,0.0,0.0,95,0.00,,---,0.01,VWS V14.01,2013-05-04 08:20:00,
2013-05-04 03:22:00,52.9,51.5,29.82,NNW,345,0.0,0.0,95,0.00,,---,0.01,VWS V14.01,2013-05-04 08:22:00,
2013-05-04 03:23:00,52.9,51.5,29.82,NNW,345,0.0,0.0,95,0.00,,---,0.01,VWS V14.01,2013-05-04 08:23:00,
2013-05-04 03:26:00,52.9,51.5,29.82,NNW,345,0.0,0.0,95,0.00,,---,0.01,VWS V14.01,2013-05-04 08:26:00,
2013-05-04 03:28:00,52.8,51.1,29.82,NNW,345,0.0,0.0,94,0.00,,---,0.01,VWS V14.01,2013-05-04 08:28:00,
2013-05-04 03:29:00,52.8,51.1,29.82,NNW,345,0.0,0.0,94,0.00,,---,0.01,VWS V14.01,2013-05-04 08:29:00,
2013-05-04 03:31:00,52.8,51.1,29.82,NNW,345,0.0,0.0,94,0.00,,---,0.01,VWS V14.01,2013-05-04 08:31:00,
2013-05-04 03:32:00,52.8,51.1,29.82,NNW,345,0.0,0.0,94,0.00,,---,0.01,VWS V14.01,2013-05-04 08:32:00,
2013-05-04 03:33:00,52.8,51.1,29.82,NNW,345,0.0,0.0,94,0.00,,---,0.01,VWS V14.01,2013-05-04 08:33:00,
2013-05-04 03:34:00,52.8,51.1,29.82,NNW,345,0.0,0.0,94,0.00,,---,0.01,VWS V14.01,2013-05-04 08:34:00,
2013-05-04 03:35:00,52.8,51.1,29.82,NNW,345,0.0,0.0,94,0.00,,---,0.01,VWS V14.01,2013-05-04 08:35:00,
2013-05-04 03:37:00,52.8,51.1,29.82,NNW,345,0.0,0.0,94,0.00,,---,0.01,VWS V14.01,2013-05-04 08:37:00,
2013-05-04 03:39:00,52.8,51.1,29.82,NNW,345,0.0,0.0,94,0.00,,---,0.01,VWS V14.01,2013-05-04 08:39:00,
2013-05-04 03:42:00,52.8,50.8,29.82,NNW,345,0.0,0.0,93,0.00,,---,0.01,VWS V14.01,2013-05-04 08:42:00,
2013-05-04 03:43:00,52.8,50.8,29.82,NNW,345,0.0,0.0,93,0.00,,---,0.01,VWS V14.01,2013-05-04 08:43:00,
2013-05-04 03:44:00,52.6,50.6,29.82,NNW,345,0.0,0.0,93,0.00,,---,0.01,VWS V14.01,2013-05-04 08:44:00,
2013-05-04 03:48:00,52.6,50.3,29.82,NNW,345,0.0,0.0,92,0.00,,---,0.01,VWS V14.01,2013-05-04 08:48:00,
2013-05-04 03:49:00,52.6,50.3,29.82,NNW,345,0.0,0.0,92,0.00,,---,0.01,VWS V14.01,2013-05-04 08:49:00,
2013-05-04 03:50:00,52.6,50.3,29.82,NNW,345,0.0,0.0,92,0.00,,---,0.01,VWS V14.01,2013-05-04 08:50:00,
2013-05-04 03:52:00,52.6,50.3,29.82,NNW,345,0.0,0.0,92,0.00,,---,0.01,VWS V14.01,2013-05-04 08:52:00,
2013-05-04 03:53:00,52.6,50.3,29.82,NNW,345,0.0,0.0,92,0.00,,---,0.01,VWS V14.01,2013-05-04 08:53:00,
2013-05-04 03:55:00,52.6,50.0,29.82,NNW,345,0.0,0.0,91,0.00,,---,0.01,VWS V14.01,2013-05-04 08:55:00,
2013-05-04 03:56:00,52.6,50.0,29.82,NNW,345,0.0,0.0,91,0.00,,---,0.01,VWS V14.01,2013-05-04 08:56:00,
2013-05-04 03:59:00,52.6,50.0,29.82,NNW,345,0.0,0.0,91,0.00,,---,0.01,VWS V14.01,2013-05-04 08:59:00,
2013-05-04 04:01:00,52.6,49.8,29.82,NNW,345,0.0,0.0,90,0.00,,---,0.01,VWS V14.01,2013-05-04 09:01:00,
2013-05-04 04:03:00,52.6,49.8,29.82,NNW,345,0.0,0.0,90,0.00,,---,0.01,VWS V14.01,2013-05-04 09:03:00,
2013-05-04 04:04:00,52.6,49.8,29.82,NNW,345,0.0,0.0,90,0.00,,---,0.01,VWS V14.01,2013-05-04 09:04:00,
2013-05-04 04:05:00,52.6,49.5,29.82,NNW,345,0.0,0.0,89,0.00,,---,0.01,VWS V14.01,2013-05-04 09:05:00,
2013-05-04 04:06:00,52.8,49.7,29.82,NNW,345,0.0,0.0,89,0.00,,---,0.01,VWS V14.01,2013-05-04 09:06:00,
2013-05-04 04:09:00,52.8,49.3,29.82,NNW,345,0.0,0.0,88,0.00,,---,0.01,VWS V14.01,2013-05-04 09:09:00,
2013-05-04 04:10:00,52.9,49.5,29.82,NNW,345,0.0,0.0,88,0.00,,---,0.01,VWS V14.01,2013-05-04 09:10:00,
2013-05-04 04:11:00,52.9,49.5,29.82,NNW,345,0.0,0.0,88,0.00,,---,0.01,VWS V14.01,2013-05-04 09:11:00,
2013-05-04 04:14:00,53.1,49.0,29.83,NNW,345,0.0,0.0,86,0.00,,---,0.01,VWS V14.01,2013-05-04 09:14:00,
2013-05-04 04:16:00,53.2,49.1,29.83,NNW,345,0.0,0.0,86,0.00,,---,0.01,VWS V14.01,2013-05-04 09:16:00,
2013-05-04 04:17:00,53.2,48.8,29.83,NNW,345,0.0,0.0,85,0.00,,---,0.01,VWS V14.01,2013-05-04 09:17:00,
2013-05-04 04:19:00,53.3,48.6,29.83,NNW,345,0.0,0.0,84,0.00,,---,0.01,VWS V14.01,2013-05-04 09:19:00,
2013-05-04 04:21:00,53.5,48.5,29.83,NNW,345,0.0,0.0,83,0.00,,---,0.01,VWS V14.01,2013-05-04 09:21:00,
2013-05-04 04:22:00,53.5,48.5,29.83,East,92,0.0,0.0,83,0.00,,---,0.01,VWS V14.01,2013-05-04 09:22:00,
2013-05-04 04:23:00,53.5,48.5,29.83,East,92,0.0,0.0,83,0.00,,---,0.01,VWS V14.01,2013-05-04 09:23:00,
2013-05-04 04:24:00,53.6,48.6,29.83,East,92,0.0,0.0,83,0.00,,---,0.01,VWS V14.01,2013-05-04 09:24:00,
2013-05-04 04:27:00,53.8,48.1,29.83,East,92,0.0,0.0,81,0.00,,---,0.01,VWS V14.01,2013-05-04 09:27:00,
2013-05-04 04:29:00,53.9,48.2,29.83,East,92,0.0,0.0,81,0.00,,---,0.01,VWS V14.01,2013-05-04 09:29:00,
2013-05-04 04:31:00,54.1,48.1,29.83,East,91,0.0,0.0,80,0.00,,---,0.01,VWS V14.01,2013-05-04 09:31:00,
2013-05-04 04:34:00,54.2,48.2,29.83,East,92,0.0,0.0,80,0.00,,---,0.01,VWS V14.01,2013-05-04 09:34:00,
2013-05-04 04:35:00,54.2,48.2,29.83,East,92,0.0,0.0,80,0.00,,---,0.01,VWS V14.01,2013-05-04 09:35:00,
2013-05-04 04:36:00,54.2,48.2,29.83,East,91,1.0,1.0,80,0.00,,---,0.01,VWS V14.01,2013-05-04 09:36:00,
2013-05-04 04:37:00,54.2,48.2,29.83,East,92,0.0,1.0,80,0.00,,---,0.01,VWS V14.01,2013-05-04 09:37:00,
2013-05-04 04:39:00,54.2,47.8,29.83,East,91,0.0,0.0,79,0.00,,---,0.01,VWS V14.01,2013-05-04 09:39:00,
2013-05-04 04:40:00,54.4,48.0,29.83,East,92,0.0,0.0,79,0.00,,---,0.01,VWS V14.01,2013-05-04 09:40:00,
2013-05-04 04:42:00,54.4,47.7,29.83,East,92,0.0,0.0,78,0.00,,---,0.01,VWS V14.01,2013-05-04 09:42:00,
2013-05-04 04:44:00,54.4,47.7,29.84,East,92,0.0,0.0,78,0.00,,---,0.01,VWS V14.01,2013-05-04 09:44:00,
2013-05-04 04:45:00,54.4,47.7,29.84,East,92,0.0,0.0,78,0.00,,---,0.01,VWS V14.01,2013-05-04 09:45:00,
2013-05-04 04:46:00,54.4,47.7,29.84,East,92,0.0,0.0,78,0.00,,---,0.01,VWS V14.01,2013-05-04 09:46:00,
2013-05-04 04:48:00,54.4,47.3,29.84,East,92,0.0,0.0,77,0.00,,---,0.01,VWS V14.01,2013-05-04 09:48:00,
2013-05-04 04:49:00,54.5,47.5,29.84,East,92,0.0,0.0,77,0.00,,---,0.01,VWS V14.01,2013-05-04 09:49:00,
2013-05-04 04:51:00,54.5,47.5,29.84,East,92,0.0,0.0,77,0.00,,---,0.01,VWS V14.01,2013-05-04 09:51:00,
2013-05-04 04:52:00,54.5,47.5,29.84,East,92,0.0,0.0,77,0.00,,---,0.01,VWS V14.01,2013-05-04 09:52:00,
2013-05-04 04:55:00,54.4,47.3,29.84,East,92,0.0,0.0,77,0.00,,---,0.01,VWS V14.01,2013-05-04 09:55:00,
2013-05-04 04:56:00,54.4,47.3,29.84,East,92,0.0,0.0,77,0.00,,---,0.01,VWS V14.01,2013-05-04 09:56:00,
2013-05-04 04:57:00,54.4,47.3,29.84,East,92,0.0,0.0,77,0.00,,---,0.01,VWS V14.01,2013-05-04 09:57:00,
2013-05-04 05:01:00,54.4,47.3,29.84,East,92,0.0,0.0,77,0.00,,---,0.01,VWS V14.01,2013-05-04 10:01:00,
2013-05-04 05:02:00,54.4,47.3,29.84,East,92,0.0,0.0,77,0.00,,---,0.01,VWS V14.01,2013-05-04 10:02:00,
2013-05-04 05:03:00,54.4,47.3,29.84,East,92,0.0,0.0,77,0.00,,---,0.01,VWS V14.01,2013-05-04 10:03:00,
2013-05-04 05:04:00,54.2,47.2,29.84,East,92,0.0,0.0,77,0.00,,---,0.01,VWS V14.01,2013-05-04 10:04:00,
2013-05-04 05:07:00,54.2,47.2,29.84,East,92,0.0,0.0,77,0.00,,---,0.01,VWS V14.01,2013-05-04 10:07:00,
2013-05-04 05:09:00,54.2,47.2,29.84,East,92,0.0,0.0,77,0.00,,---,0.01,VWS V14.01,2013-05-04 10:09:00,
2013-05-04 05:10:00,54.2,47.2,29.84,East,92,0.0,0.0,77,0.00,,---,0.01,VWS V14.01,2013-05-04 10:10:00,
2013-05-04 05:12:00,54.1,47.1,29.84,East,92,0.0,0.0,77,0.00,,---,0.01,VWS V14.01,2013-05-04 10:12:00,
2013-05-04 05:13:00,54.1,47.1,29.84,East,92,0.0,0.0,77,0.00,,---,0.01,VWS V14.01,2013-05-04 10:13:00,
2013-05-04 05:15:00,54.1,47.1,29.84,East,92,0.0,0.0,77,0.00,,---,0.01,VWS V14.01,2013-05-04 10:15:00,
2013-05-04 05:18:00,54.1,47.1,29.84,East,92,0.0,0.0,77,0.00,,---,0.01,VWS V14.01,2013-05-04 10:18:00,
2013-05-04 05:20:00,53.9,46.9,29.84,East,92,0.0,0.0,77,0.00,,---,0.01,VWS V14.01,2013-05-04 10:20:00,
2013-05-04 05:21:00,53.9,46.9,29.84,East,92,0.0,0.0,77,0.00,,---,0.01,VWS V14.01,2013-05-04 10:21:00,
2013-05-04 05:23:00,53.9,46.9,29.84,East,92,0.0,0.0,77,0.00,,---,0.01,VWS V14.01,2013-05-04 10:23:00,
2013-05-04 05:25:00,53.9,46.9,29.84,East,92,0.0,0.0,77,0.00,,---,0.01,VWS V14.01,2013-05-04 10:25:00,
2013-05-04 05:26:00,53.9,46.9,29.84,East,92,0.0,0.0,77,0.00,,---,0.01,VWS V14.01,2013-05-04 10:26:00,
2013-05-04 05:28:00,53.9,46.9,29.84,East,92,0.0,0.0,77,0.00,,---,0.01,VWS V14.01,2013-05-04 10:28:00,
2013-05-04 05:30:00,53.9,46.9,29.84,East,92,0.0,0.0,77,0.00,,---,0.01,VWS V14.01,2013-05-04 10:30:00,
2013-05-04 05:31:00,53.9,46.9,29.84,East,92,0.0,0.0,77,0.00,,---,0.01,VWS V14.01,2013-05-04 10:31:00,
2013-05-04 05:33:00,53.9,46.9,29.84,East,92,0.0,0.0,77,0.00,,---,0.01,VWS V14.01,2013-05-04 10:33:00,
2013-05-04 05:34:00,53.9,46.9,29.84,East,92,0.0,0.0,77,0.00,,---,0.01,VWS V14.01,2013-05-04 10:34:00,
2013-05-04 05:35:00,53.9,46.9,29.84,East,92,0.0,0.0,77,0.00,,---,0.01,VWS V14.01,2013-05-04 10:35:00,
2013-05-04 05:37:00,53.9,46.9,29.84,East,92,0.0,0.0,77,0.00,,---,0.01,VWS V14.01,2013-05-04 10:37:00,
2013-05-04 05:40:00,53.8,47.1,29.84,East,92,0.0,0.0,78,0.00,,---,0.01,VWS V14.01,2013-05-04 10:40:00,
2013-05-04 05:42:00,53.8,47.1,29.84,East,92,0.0,0.0,78,0.00,,---,0.01,VWS V14.01,2013-05-04 10:42:00,
2013-05-04 05:43:00,53.8,47.1,29.84,East,92,0.0,0.0,78,0.00,,---,0.01,VWS V14.01,2013-05-04 10:43:00,
2013-05-04 05:44:00,53.8,46.8,29.85,East,92,0.0,0.0,77,0.00,,---,0.01,VWS V14.01,2013-05-04 10:44:00,
2013-05-04 05:45:00,53.8,46.8,29.85,East,92,0.0,0.0,77,0.00,,---,0.01,VWS V14.01,2013-05-04 10:45:00,
2013-05-04 05:47:00,53.8,46.8,29.85,East,92,0.0,0.0,77,0.00,,---,0.01,VWS V14.01,2013-05-04 10:47:00,
2013-05-04 05:48:00,53.8,46.8,29.85,East,92,0.0,0.0,77,0.00,,---,0.01,VWS V14.01,2013-05-04 10:48:00,
2013-05-04 05:50:00,53.8,46.8,29.85,East,92,0.0,0.0,77,0.00,,---,0.01,VWS V14.01,2013-05-04 10:50:00,
2013-05-04 05:51:00,53.8,46.8,29.85,East,92,0.0,0.0,77,0.00,,---,0.01,VWS V14.01,2013-05-04 10:51:00,
2013-05-04 05:52:00,53.8,46.8,29.85,East,92,0.0,0.0,77,0.00,,---,0.01,VWS V14.01,2013-05-04 10:52:00,
2013-05-04 05:53:00,53.8,46.8,29.85,East,92,0.0,0.0,77,0.00,,---,0.01,VWS V14.01,2013-05-04 10:53:00,
2013-05-04 05:55:00,53.8,46.8,29.85,East,92,0.0,0.0,77,0.00,,---,0.01,VWS V14.01,2013-05-04 10:55:00,
2013-05-04 05:56:00,53.8,46.8,29.85,East,92,0.0,0.0,77,0.00,,---,0.01,VWS V14.01,2013-05-04 10:56:00,
2013-05-04 05:57:00,53.8,46.8,29.85,East,92,0.0,0.0,77,0.00,,---,0.01,VWS V14.01,2013-05-04 10:57:00,
2013-05-04 05:58:00,53.8,46.8,29.85,East,92,0.0,0.0,77,0.00,,---,0.01,VWS V14.01,2013-05-04 10:58:00,
2013-05-04 05:59:00,53.9,46.9,29.85,East,92,0.0,0.0,77,0.00,,---,0.01,VWS V14.01,2013-05-04 10:59:00,
2013-05-04 06:00:00,53.9,46.9,29.85,East,92,0.0,0.0,77,0.00,,---,0.01,VWS V14.01,2013-05-04 11:00:00,
2013-05-04 06:02:00,53.9,46.9,29.85,East,92,0.0,0.0,77,0.00,,---,0.01,VWS V14.01,2013-05-04 11:02:00,
2013-05-04 06:05:00,53.9,46.9,29.85,East,92,0.0,0.0,77,0.00,,---,0.01,VWS V14.01,2013-05-04 11:05:00,
2013-05-04 06:08:00,54.1,46.7,29.85,East,92,0.0,0.0,76,0.00,,---,0.01,VWS V14.01,2013-05-04 11:08:00,
2013-05-04 06:09:00,54.1,46.7,29.85,East,92,0.0,0.0,76,0.00,,---,0.01,VWS V14.01,2013-05-04 11:09:00,
2013-05-04 06:10:00,54.1,47.1,29.85,East,92,0.0,0.0,77,0.00,,---,0.01,VWS V14.01,2013-05-04 11:10:00,
2013-05-04 06:12:00,54.1,47.1,29.85,East,92,0.0,0.0,77,0.00,,---,0.01,VWS V14.01,2013-05-04 11:12:00,
2013-05-04 06:15:00,54.1,46.7,29.85,East,93,1.0,1.0,76,0.00,,---,0.01,VWS V14.01,2013-05-04 11:15:00,
2013-05-04 06:17:00,54.2,46.8,29.85,East,93,0.0,0.0,76,0.00,,---,0.01,VWS V14.01,2013-05-04 11:17:00,
2013-05-04 06:18:00,54.2,46.5,29.85,East,93,0.0,0.0,75,0.00,,---,0.01,VWS V14.01,2013-05-04 11:18:00,
2013-05-04 06:19:00,54.2,46.5,29.85,East,93,0.0,0.0,75,0.00,,---,0.01,VWS V14.01,2013-05-04 11:19:00,
2013-05-04 06:20:00,54.4,46.7,29.85,East,93,0.0,0.0,75,0.00,,---,0.01,VWS V14.01,2013-05-04 11:20:00,
2013-05-04 06:21:00,54.4,46.7,29.85,East,93,0.0,0.0,75,0.00,,---,0.01,VWS V14.01,2013-05-04 11:21:00,
2013-05-04 06:22:00,54.5,46.8,29.85,East,93,0.0,0.0,75,0.00,,---,0.01,VWS V14.01,2013-05-04 11:22:00,
2013-05-04 06:23:00,54.5,46.8,29.85,East,93,0.0,0.0,75,0.00,,---,0.01,VWS V14.01,2013-05-04 11:23:00,
2013-05-04 06:24:00,54.5,46.8,29.85,East,93,0.0,0.0,75,0.00,,---,0.01,VWS V14.01,2013-05-04 11:24:00,
2013-05-04 06:26:00,54.7,46.9,29.85,East,93,0.0,0.0,75,0.00,,---,0.01,VWS V14.01,2013-05-04 11:26:00,
2013-05-04 06:27:00,54.7,46.9,29.85,East,93,0.0,0.0,75,0.00,,---,0.01,VWS V14.01,2013-05-04 11:27:00,
2013-05-04 06:29:00,54.7,46.9,29.86,East,93,0.0,0.0,75,0.00,,---,0.01,VWS V14.01,2013-05-04 11:29:00,
2013-05-04 06:31:00,54.7,46.9,29.86,East,93,0.0,0.0,75,0.00,,---,0.01,VWS V14.01,2013-05-04 11:31:00,
2013-05-04 06:32:00,54.8,47.0,29.86,East,93,0.0,0.0,75,0.00,,---,0.01,VWS V14.01,2013-05-04 11:32:00,
2013-05-04 06:33:00,54.8,47.0,29.86,East,93,0.0,0.0,75,0.00,,---,0.01,VWS V14.01,2013-05-04 11:33:00,
2013-05-04 06:35:00,54.8,47.0,29.86,East,93,0.0,0.0,75,0.00,,---,0.01,VWS V14.01,2013-05-04 11:35:00,
2013-05-04 06:38:00,54.8,47.0,29.86,East,93,0.0,0.0,75,0.00,,---,0.01,VWS V14.01,2013-05-04 11:38:00,
2013-05-04 06:39:00,55.0,47.2,29.86,East,93,0.0,0.0,75,0.00,,---,0.01,VWS V14.01,2013-05-04 11:39:00,
2013-05-04 06:40:00,55.0,47.2,29.86,East,93,0.0,0.0,75,0.00,,---,0.01,VWS V14.01,2013-05-04 11:40:00,
2013-05-04 06:43:00,55.1,47.0,29.86,East,93,0.0,0.0,74,0.00,,---,0.01,VWS V14.01,2013-05-04 11:43:00,
2013-05-04 06:45:00,55.1,47.0,29.86,East,93,0.0,0.0,74,0.00,,---,0.01,VWS V14.01,2013-05-04 11:45:00,
2013-05-04 06:46:00,55.3,47.2,29.86,East,93,0.0,1.0,74,0.00,,---,0.01,VWS V14.01,2013-05-04 11:46:00,
2013-05-04 06:49:00,55.4,47.3,29.86,East,93,0.0,0.0,74,0.00,,---,0.01,VWS V14.01,2013-05-04 11:49:00,
2013-05-04 06:52:00,55.6,47.5,29.86,East,93,0.0,0.0,74,0.00,,---,0.01,VWS V14.01,2013-05-04 11:52:00,
2013-05-04 06:54:00,55.6,47.5,29.86,East,93,0.0,0.0,74,0.00,,---,0.01,VWS V14.01,2013-05-04 11:54:00,
2013-05-04 06:56:00,55.7,47.5,29.86,East,93,0.0,0.0,74,0.00,,---,0.01,VWS V14.01,2013-05-04 11:56:00,
2013-05-04 06:57:00,55.7,47.5,29.86,East,93,0.0,0.0,74,0.00,,---,0.01,VWS V14.01,2013-05-04 11:57:00,
2013-05-04 06:59:00,55.7,47.5,29.86,East,93,0.0,0.0,74,0.00,,---,0.01,VWS V14.01,2013-05-04 11:59:00,
2013-05-04 07:01:00,55.7,47.5,29.86,East,93,0.0,0.0,74,0.00,,---,0.01,VWS V14.01,2013-05-04 12:01:00,
2013-05-04 07:02:00,55.9,47.7,29.86,East,93,0.0,0.0,74,0.00,,---,0.01,VWS V14.01,2013-05-04 12:02:00,
2013-05-04 07:05:00,55.9,47.7,29.86,East,93,0.0,0.0,74,0.00,,---,0.01,VWS V14.01,2013-05-04 12:05:00,
2013-05-04 07:07:00,55.9,47.7,29.86,East,93,0.0,0.0,74,0.00,,---,0.01,VWS V14.01,2013-05-04 12:07:00,
2013-05-04 07:08:00,56.0,47.8,29.86,East,93,0.0,0.0,74,0.00,,---,0.01,VWS V14.01,2013-05-04 12:08:00,
2013-05-04 07:12:00,56.2,48.0,29.86,East,93,0.0,0.0,74,0.00,,---,0.01,VWS V14.01,2013-05-04 12:12:00,
2013-05-04 07:14:00,56.2,48.0,29.86,East,93,0.0,0.0,74,0.00,,---,0.01,VWS V14.01,2013-05-04 12:14:00,
2013-05-04 07:16:00,56.3,47.8,29.86,East,93,0.0,0.0,73,0.00,,---,0.01,VWS V14.01,2013-05-04 12:16:00,
2013-05-04 07:17:00,56.3,47.8,29.86,East,93,0.0,0.0,73,0.00,,---,0.01,VWS V14.01,2013-05-04 12:17:00,
2013-05-04 07:19:00,56.5,48.0,29.86,East,93,0.0,0.0,73,0.00,,---,0.01,VWS V14.01,2013-05-04 12:19:00,
2013-05-04 07:22:00,56.6,47.7,29.86,East,93,1.0,1.0,72,0.00,,---,0.01,VWS V14.01,2013-05-04 12:22:00,
2013-05-04 07:24:00,56.6,47.7,29.86,East,93,0.0,0.0,72,0.00,,---,0.01,VWS V14.01,2013-05-04 12:24:00,
2013-05-04 07:25:00,56.7,47.8,29.86,East,93,1.0,1.0,72,0.00,,---,0.01,VWS V14.01,2013-05-04 12:25:00,
2013-05-04 07:28:00,56.9,48.0,29.86,East,94,0.0,0.0,72,0.00,,---,0.01,VWS V14.01,2013-05-04 12:28:00,
2013-05-04 07:29:00,56.9,48.0,29.86,East,93,0.0,0.0,72,0.00,,---,0.01,VWS V14.01,2013-05-04 12:29:00,
2013-05-04 07:30:00,56.9,48.0,29.86,East,93,0.0,1.0,72,0.00,,---,0.01,VWS V14.01,2013-05-04 12:30:00,
2013-05-04 07:32:00,57.0,47.7,29.86,East,94,0.0,0.0,71,0.00,,---,0.01,VWS V14.01,2013-05-04 12:32:00,
2013-05-04 07:34:00,57.0,47.7,29.86,East,92,0.0,1.0,71,0.00,,---,0.01,VWS V14.01,2013-05-04 12:34:00,
2013-05-04 07:36:00,57.2,47.9,29.86,East,92,0.0,0.0,71,0.00,,---,0.01,VWS V14.01,2013-05-04 12:36:00,
2013-05-04 07:38:00,57.3,47.6,29.86,ESE,104,0.0,0.0,70,0.00,,---,0.01,VWS V14.01,2013-05-04 12:38:00,
2013-05-04 07:40:00,57.3,48.0,29.86,ESE,104,0.0,0.0,71,0.00,,---,0.01,VWS V14.01,2013-05-04 12:40:00,
2013-05-04 07:41:00,57.5,48.2,29.86,ESE,104,0.0,0.0,71,0.00,,---,0.01,VWS V14.01,2013-05-04 12:41:00,
2013-05-04 07:42:00,57.5,48.2,29.86,ESE,104,0.0,0.0,71,0.00,,---,0.01,VWS V14.01,2013-05-04 12:42:00,
2013-05-04 07:45:00,57.6,48.3,29.87,ESE,104,0.0,0.0,71,0.00,,---,0.01,VWS V14.01,2013-05-04 12:45:00,
2013-05-04 07:47:00,57.8,48.1,29.87,ESE,104,0.0,0.0,70,0.00,,---,0.01,VWS V14.01,2013-05-04 12:47:00,
2013-05-04 07:50:00,58.1,47.6,29.87,ESE,108,0.0,1.0,68,0.00,,---,0.01,VWS V14.01,2013-05-04 12:50:00,
2013-05-04 07:52:00,58.3,47.8,29.87,ESE,115,2.0,2.0,68,0.00,,---,0.01,VWS V14.01,2013-05-04 12:52:00,
2013-05-04 07:53:00,58.3,47.8,29.87,ESE,122,1.0,2.0,68,0.00,,---,0.01,VWS V14.01,2013-05-04 12:53:00,
2013-05-04 07:54:00,58.4,47.5,29.87,ESE,122,0.0,0.0,67,0.00,,---,0.01,VWS V14.01,2013-05-04 12:54:00,
2013-05-04 07:56:00,58.4,47.5,29.87,East,83,0.0,4.0,67,0.00,,---,0.01,VWS V14.01,2013-05-04 12:56:00,
2013-05-04 07:58:00,58.6,47.3,29.87,ESE,121,0.0,2.0,66,0.00,,---,0.01,VWS V14.01,2013-05-04 12:58:00,
2013-05-04 07:59:00,58.7,47.4,29.87,ESE,105,0.0,2.0,66,0.00,,---,0.01,VWS V14.01,2013-05-04 12:59:00,
2013-05-04 08:01:00,58.9,48.0,29.87,East,100,1.0,3.0,67,0.00,,---,0.01,VWS V14.01,2013-05-04 13:01:00,
2013-05-04 08:03:00,58.9,47.6,29.87,East,80,0.0,1.0,66,0.00,,---,0.01,VWS V14.01,2013-05-04 13:03:00,
2013-05-04 08:04:00,59.0,47.7,29.87,East,80,0.0,1.0,66,0.00,,---,0.01,VWS V14.01,2013-05-04 13:04:00,
2013-05-04 08:05:00,59.0,48.1,29.87,ENE,66,0.0,0.0,67,0.00,,---,0.01,VWS V14.01,2013-05-04 13:05:00,
2013-05-04 08:06:00,59.2,48.7,29.87,ESE,115,0.0,0.0,68,0.00,,---,0.01,VWS V14.01,2013-05-04 13:06:00,
2013-05-04 08:08:00,59.2,47.9,29.87,SE,127,0.0,3.0,66,0.00,,---,0.01,VWS V14.01,2013-05-04 13:08:00,
2013-05-04 08:10:00,59.3,48.0,29.87,SE,130,2.0,2.0,66,0.00,,---,0.01,VWS V14.01,2013-05-04 13:10:00,
2013-05-04 08:11:00,59.3,47.5,29.87,East,94,0.0,4.0,65,0.00,,---,0.01,VWS V14.01,2013-05-04 13:11:00,
2013-05-04 08:13:00,59.5,48.2,29.87,East,94,0.0,0.0,66,0.00,,---,0.01,VWS V14.01,2013-05-04 13:13:00,
2013-05-04 08:14:00,59.5,48.2,29.87,East,94,0.0,1.0,66,0.00,,---,0.01,VWS V14.01,2013-05-04 13:14:00,
2013-05-04 08:15:00,59.5,48.2,29.87,East,101,0.0,1.0,66,0.00,,---,0.01,VWS V14.01,2013-05-04 13:15:00,
2013-05-04 08:16:00,59.6,48.2,29.87,East,82,0.0,0.0,66,0.00,,---,0.01,VWS V14.01,2013-05-04 13:16:00,
2013-05-04 08:18:00,59.6,48.2,29.87,SE,129,0.0,0.0,66,0.00,,---,0.01,VWS V14.01,2013-05-04 13:18:00,
2013-05-04 08:19:00,59.6,48.2,29.87,SE,129,0.0,0.0,66,0.00,,---,0.01,VWS V14.01,2013-05-04 13:19:00,
2013-05-04 08:21:00,59.8,48.4,29.87,SSE,150,2.0,2.0,66,0.00,,---,0.01,VWS V14.01,2013-05-04 13:21:00,
2013-05-04 08:22:00,59.8,48.0,29.87,East,99,3.0,3.0,65,0.00,,---,0.01,VWS V14.01,2013-05-04 13:22:00,
2013-05-04 08:23:00,59.8,48.4,29.87,East,99,0.0,3.0,66,0.00,,---,0.01,VWS V14.01,2013-05-04 13:23:00,
2013-05-04 08:24:00,59.9,48.5,29.87,East,84,2.0,2.0,66,0.00,,---,0.01,VWS V14.01,2013-05-04 13:24:00,
2013-05-04 08:25:00,59.9,48.1,29.87,East,92,1.0,2.0,65,0.00,,---,0.01,VWS V14.01,2013-05-04 13:25:00,
2013-05-04 08:28:00,60.1,48.7,29.87,SE,125,0.0,2.0,66,0.00,,---,0.01,VWS V14.01,2013-05-04 13:28:00,
2013-05-04 08:29:00,60.1,48.7,29.87,ESE,106,1.0,1.0,66,0.00,,---,0.01,VWS V14.01,2013-05-04 13:29:00,
2013-05-04 08:30:00,60.2,48.8,29.87,SE,128,2.0,2.0,66,0.00,,---,0.01,VWS V14.01,2013-05-04 13:30:00,
2013-05-04 08:31:00,60.2,48.8,29.87,SE,128,0.0,2.0,66,0.00,,---,0.01,VWS V14.01,2013-05-04 13:31:00,
2013-05-04 08:34:00,60.2,48.4,29.87,SE,131,1.0,2.0,65,0.00,,---,0.01,VWS V14.01,2013-05-04 13:34:00,
2013-05-04 08:35:00,60.4,48.6,29.87,ESE,115,1.0,2.0,65,0.00,,---,0.01,VWS V14.01,2013-05-04 13:35:00,
2013-05-04 08:36:00,60.4,48.6,29.87,East,96,2.0,2.0,65,0.00,,---,0.01,VWS V14.01,2013-05-04 13:36:00,
2013-05-04 08:38:00,60.4,48.6,29.87,East,99,2.0,2.0,65,0.00,,---,0.01,VWS V14.01,2013-05-04 13:38:00,
2013-05-04 08:39:00,60.5,48.7,29.87,SSE,153,0.0,3.0,65,0.00,,---,0.01,VWS V14.01,2013-05-04 13:39:00,
2013-05-04 08:40:00,60.5,48.7,29.87,SE,146,0.0,1.0,65,0.00,,---,0.01,VWS V14.01,2013-05-04 13:40:00,
2013-05-04 08:42:00,60.5,49.1,29.87,NNE,33,0.0,0.0,66,0.00,,---,0.01,VWS V14.01,2013-05-04 13:42:00,
2013-05-04 08:45:00,60.7,48.9,29.87,ESE,122,2.0,2.0,65,0.00,,---,0.01,VWS V14.01,2013-05-04 13:45:00,
2013-05-04 08:46:00,60.9,49.1,29.87,SE,127,2.0,2.0,65,0.00,,---,0.01,VWS V14.01,2013-05-04 13:46:00,
2013-05-04 08:47:00,60.9,49.1,29.87,SE,128,2.0,3.0,65,0.00,,---,0.01,VWS V14.01,2013-05-04 13:47:00,
2013-05-04 08:50:00,61.0,49.2,29.87,SE,146,2.0,2.0,65,0.00,,---,0.01,VWS V14.01,2013-05-04 13:50:00,
2013-05-04 08:52:00,61.2,48.9,29.87,South,169,1.0,2.0,64,0.00,,---,0.01,VWS V14.01,2013-05-04 13:52:00,
2013-05-04 08:53:00,61.2,48.9,29.87,ESE,112,0.0,3.0,64,0.00,,---,0.01,VWS V14.01,2013-05-04 13:53:00,
2013-05-04 08:55:00,61.3,48.6,29.87,East,86,3.0,3.0,63,0.00,,---,0.01,VWS V14.01,2013-05-04 13:55:00,
2013-05-04 08:56:00,61.3,48.6,29.87,SE,136,3.0,5.0,63,0.00,,---,0.01,VWS V14.01,2013-05-04 13:56:00,
2013-05-04 08:58:00,61.3,48.2,29.87,SE,127,0.0,2.0,62,0.00,,---,0.01,VWS V14.01,2013-05-04 13:58:00,
2013-05-04 08:59:00,61.3,49.0,29.87,South,173,0.0,0.0,64,0.00,,---,0.01,VWS V14.01,2013-05-04 13:59:00,
2013-05-04 09:01:00,61.5,49.2,29.87,ESE,122,0.0,1.0,64,0.00,,---,0.01,VWS V14.01,2013-05-04 14:01:00,
2013-05-04 09:03:00,61.6,49.3,29.87,SE,133,1.0,2.0,64,0.00,,---,0.01,VWS V14.01,2013-05-04 14:03:00,
2013-05-04 09:05:00,61.8,49.1,29.87,ESE,114,2.0,3.0,63,0.00,,---,0.01,VWS V14.01,2013-05-04 14:05:00,
2013-05-04 09:06:00,61.8,49.1,29.87,East,80,0.0,2.0,63,0.00,,---,0.01,VWS V14.01,2013-05-04 14:06:00,
2013-05-04 09:08:00,62.0,48.8,29.87,SE,135,3.0,3.0,62,0.00,,---,0.01,VWS V14.01,2013-05-04 14:08:00,
2013-05-04 09:09:00,62.1,48.9,29.87,ESE,103,2.0,3.0,62,0.00,,---,0.01,VWS V14.01,2013-05-04 14:09:00,
2013-05-04 09:10:00,62.1,48.9,29.87,SE,127,3.0,3.0,62,0.00,,---,0.01,VWS V14.01,2013-05-04 14:10:00,
2013-05-04 09:11:00,62.1,48.5,29.87,ESE,110,1.0,2.0,61,0.00,,---,0.01,VWS V14.01,2013-05-04 14:11:00,
2013-05-04 09:13:00,62.3,48.7,29.87,ESE,120,0.0,1.0,61,0.00,,---,0.01,VWS V14.01,2013-05-04 14:13:00,
2013-05-04 09:16:00,62.6,49.0,29.87,SW,220,3.0,5.0,61,0.00,,---,0.01,VWS V14.01,2013-05-04 14:16:00,
2013-05-04 09:17:00,62.6,48.5,29.87,SE,131,4.0,4.0,60,0.00,,---,0.01,VWS V14.01,2013-05-04 14:17:00,
2013-05-04 09:18:00,62.6,48.5,29.87,SSE,150,1.0,1.0,60,0.00,,---,0.01,VWS V14.01,2013-05-04 14:18:00,
2013-05-04 09:19:00,62.7,49.5,29.87,SE,130,3.0,3.0,62,0.00,,---,0.01,VWS V14.01,2013-05-04 14:19:00,
2013-05-04 09:22:00,62.9,48.8,29.87,East,93,1.0,4.0,60,0.00,,---,0.01,VWS V14.01,2013-05-04 14:22:00,
2013-05-04 09:24:00,62.9,48.4,29.87,SE,137,1.0,2.0,59,0.00,,---,0.01,VWS V14.01,2013-05-04 14:24:00,
2013-05-04 09:25:00,63.1,48.6,29.87,SE,137,3.0,3.0,59,0.00,,---,0.01,VWS V14.01,2013-05-04 14:25:00,
2013-05-04 09:26:00,63.1,48.6,29.87,ESE,116,0.0,3.0,59,0.00,,---,0.01,VWS V14.01,2013-05-04 14:26:00,
2013-05-04 09:28:00,63.2,49.1,29.87,SE,142,4.0,4.0,60,0.00,,---,0.01,VWS V14.01,2013-05-04 14:28:00,
2013-05-04 09:29:00,63.2,48.7,29.87,ESE,123,2.0,4.0,59,0.00,,---,0.01,VWS V14.01,2013-05-04 14:29:00,
2013-05-04 09:31:00,63.4,48.8,29.87,ESE,121,2.0,4.0,59,0.00,,---,0.01,VWS V14.01,2013-05-04 14:31:00,
2013-05-04 09:33:00,63.7,50.0,29.87,SE,141,1.0,2.0,61,0.00,,---,0.01,VWS V14.01,2013-05-04 14:33:00,
2013-05-04 09:34:00,63.7,50.0,29.87,East,101,4.0,7.0,61,0.00,,---,0.01,VWS V14.01,2013-05-04 14:34:00,
2013-05-04 09:36:00,63.9,49.3,29.87,SSW,208,2.0,3.0,59,0.00,,---,0.01,VWS V14.01,2013-05-04 14:36:00,
2013-05-04 09:37:00,63.9,49.3,29.87,SE,135,2.0,3.0,59,0.00,,---,0.01,VWS V14.01,2013-05-04 14:37:00,
2013-05-04 09:39:00,64.2,49.6,29.87,SE,138,4.0,4.0,59,0.00,,---,0.01,VWS V14.01,2013-05-04 14:39:00,
2013-05-04 09:41:00,64.3,49.7,29.87,SE,140,2.0,3.0,59,0.00,,---,0.01,VWS V14.01,2013-05-04 14:41:00,
2013-05-04 09:44:00,64.3,49.2,29.87,East,98,1.0,2.0,58,0.00,,---,0.01,VWS V14.01,2013-05-04 14:44:00,
2013-05-04 09:45:00,64.3,49.2,29.87,SSW,207,5.0,6.0,58,0.00,,---,0.01,VWS V14.01,2013-05-04 14:45:00,
2013-05-04 09:48:00,64.3,48.8,29.87,South,171,3.0,5.0,57,0.00,,---,0.01,VWS V14.01,2013-05-04 14:48:00,
2013-05-04 09:49:00,64.3,48.8,29.87,SSE,168,2.0,5.0,57,0.00,,---,0.01,VWS V14.01,2013-05-04 14:49:00,
2013-05-04 09:50:00,64.3,49.2,29.87,South,174,0.0,4.0,58,0.00,,---,0.01,VWS V14.01,2013-05-04 14:50:00,
2013-05-04 09:51:00,64.5,49.4,29.87,South,172,3.0,4.0,58,0.00,,---,0.01,VWS V14.01,2013-05-04 14:51:00,
2013-05-04 09:54:00,64.7,50.1,29.87,East,91,2.0,2.0,59,0.00,,---,0.01,VWS V14.01,2013-05-04 14:54:00,
2013-05-04 09:55:00,64.7,48.7,29.87,East,94,2.0,6.0,56,0.00,,---,0.01,VWS V14.01,2013-05-04 14:55:00,
2013-05-04 09:57:00,64.7,48.7,29.87,SSW,192,1.0,5.0,56,0.00,,---,0.01,VWS V14.01,2013-05-04 14:57:00,
2013-05-04 09:59:00,64.8,48.8,29.87,South,181,2.0,7.0,56,0.00,,---,0.01,VWS V14.01,2013-05-04 14:59:00,
2013-05-04 10:00:00,64.8,48.8,29.87,East,91,1.0,4.0,56,0.00,,---,0.01,VWS V14.01,2013-05-04 15:00:00,
2013-05-04 10:02:00,65.0,49.9,29.87,ESE,121,2.0,2.0,58,0.00,,---,0.01,VWS V14.01,2013-05-04 15:02:00,
2013-05-04 10:04:00,65.2,50.1,29.87,East,94,3.0,3.0,58,0.00,,---,0.01,VWS V14.01,2013-05-04 15:04:00,
2013-05-04 10:05:00,65.2,50.1,29.87,SE,141,4.0,4.0,58,0.00,,---,0.01,VWS V14.01,2013-05-04 15:05:00,
2013-05-04 10:07:00,65.5,49.9,29.87,SE,124,2.0,5.0,57,0.00,,---,0.01,VWS V14.01,2013-05-04 15:07:00,
2013-05-04 10:09:00,65.5,49.4,29.87,East,93,2.0,4.0,56,0.00,,---,0.01,VWS V14.01,2013-05-04 15:09:00,
2013-05-04 10:11:00,65.6,49.5,29.87,SE,131,3.0,3.0,56,0.00,,---,0.01,VWS V14.01,2013-05-04 15:11:00,
2013-05-04 10:12:00,65.6,49.5,29.87,SSE,157,2.0,4.0,56,0.00,,---,0.01,VWS V14.01,2013-05-04 15:12:00,
2013-05-04 10:15:00,65.6,48.5,29.87,East,89,0.0,5.0,54,0.00,,---,0.01,VWS V14.01,2013-05-04 15:15:00,
2013-05-04 10:17:00,65.6,49.5,29.87,South,172,0.0,3.0,56,0.00,,---,0.01,VWS V14.01,2013-05-04 15:17:00,
2013-05-04 10:18:00,65.8,49.7,29.87,South,172,0.0,0.0,56,0.00,,---,0.01,VWS V14.01,2013-05-04 15:18:00,
2013-05-04 10:19:00,66.0,49.9,29.87,South,183,2.0,2.0,56,0.00,,---,0.01,VWS V14.01,2013-05-04 15:19:00,
2013-05-04 10:20:00,66.1,49.5,29.87,SSE,160,0.0,4.0,55,0.00,,---,0.01,VWS V14.01,2013-05-04 15:20:00,
2013-05-04 10:23:00,66.4,49.8,29.87,SSE,165,5.0,5.0,55,0.00,,---,0.01,VWS V14.01,2013-05-04 15:23:00,
2013-05-04 10:24:00,66.4,49.3,29.87,SSE,167,2.0,5.0,54,0.00,,---,0.01,VWS V14.01,2013-05-04 15:24:00,
2013-05-04 10:25:00,66.6,49.5,29.87,SE,134,1.0,3.0,54,0.00,,---,0.01,VWS V14.01,2013-05-04 15:25:00,
2013-05-04 10:27:00,66.6,50.0,29.87,South,175,3.0,4.0,55,0.00,,---,0.01,VWS V14.01,2013-05-04 15:27:00,
2013-05-04 10:28:00,66.6,50.0,29.87,East,101,3.0,4.0,55,0.00,,---,0.01,VWS V14.01,2013-05-04 15:28:00,
2013-05-04 10:29:00,66.6,49.5,29.86,WSW,240,1.0,7.0,54,0.00,,---,0.01,VWS V14.01,2013-05-04 15:29:00,
2013-05-04 10:30:00,66.6,49.0,29.86,South,184,0.0,4.0,53,0.00,,---,0.01,VWS V14.01,2013-05-04 15:30:00,
2013-05-04 10:32:00,66.8,49.6,29.86,SE,129,2.0,6.0,54,0.00,,---,0.01,VWS V14.01,2013-05-04 15:32:00,
2013-05-04 10:34:00,66.8,49.1,29.86,ESE,120,0.0,1.0,53,0.00,,---,0.01,VWS V14.01,2013-05-04 15:34:00,
2013-05-04 10:36:00,66.9,49.2,29.86,SE,141,2.0,3.0,53,0.00,,---,0.01,VWS V14.01,2013-05-04 15:36:00,
2013-05-04 10:37:00,66.9,48.7,29.86,SW,218,0.0,0.0,52,0.00,,---,0.01,VWS V14.01,2013-05-04 15:37:00,
2013-05-04 10:38:00,66.9,49.7,29.86,SE,124,2.0,3.0,54,0.00,,---,0.01,VWS V14.01,2013-05-04 15:38:00,
2013-05-04 10:39:00,67.1,49.9,29.86,East,86,2.0,2.0,54,0.00,,---,0.01,VWS V14.01,2013-05-04 15:39:00,
2013-05-04 10:41:00,67.1,49.4,29.86,ESE,108,3.0,4.0,53,0.00,,---,0.01,VWS V14.01,2013-05-04 15:41:00,
2013-05-04 10:43:00,67.1,49.4,29.86,South,190,1.0,7.0,53,0.00,,---,0.01,VWS V14.01,2013-05-04 15:43:00,
2013-05-04 10:44:00,67.1,48.9,29.86,East,88,0.0,4.0,52,0.00,,---,0.01,VWS V14.01,2013-05-04 15:44:00,
2013-05-04 10:47:00,67.1,50.4,29.86,SE,141,3.0,5.0,55,0.00,,---,0.01,VWS V14.01,2013-05-04 15:47:00,
2013-05-04 10:48:00,66.9,49.2,29.86,South,169,0.0,0.0,53,0.00,,---,0.01,VWS V14.01,2013-05-04 15:48:00,
2013-05-04 10:49:00,66.9,49.2,29.86,South,169,0.0,0.0,53,0.00,,---,0.01,VWS V14.01,2013-05-04 15:49:00,
2013-05-04 10:51:00,66.8,49.1,29.86,SSE,158,1.0,3.0,53,0.00,,---,0.01,VWS V14.01,2013-05-04 15:51:00,
2013-05-04 10:52:00,66.8,49.1,29.86,East,89,2.0,3.0,53,0.00,,---,0.01,VWS V14.01,2013-05-04 15:52:00,
2013-05-04 10:54:00,66.9,49.7,29.86,SE,127,1.0,2.0,54,0.00,,---,0.01,VWS V14.01,2013-05-04 15:54:00,
2013-05-04 10:57:00,66.9,49.2,29.86,SSE,165,1.0,2.0,53,0.00,,---,0.01,VWS V14.01,2013-05-04 15:57:00,
2013-05-04 10:59:00,67.1,49.9,29.86,SE,146,0.0,0.0,54,0.00,,---,0.01,VWS V14.01,2013-05-04 15:59:00,
2013-05-04 11:02:00,67.3,50.1,29.86,ESE,110,2.0,2.0,54,0.00,,---,0.01,VWS V14.01,2013-05-04 16:02:00,
2013-05-04 11:03:00,67.3,49.6,29.86,SE,140,3.0,6.0,53,0.00,,---,0.01,VWS V14.01,2013-05-04 16:03:00,
2013-05-04 11:04:00,67.3,49.6,29.86,SE,146,0.0,4.0,53,0.00,,---,0.01,VWS V14.01,2013-05-04 16:04:00,
2013-05-04 11:05:00,67.3,50.1,29.86,SE,133,0.0,1.0,54,0.00,,---,0.01,VWS V14.01,2013-05-04 16:05:00,
2013-05-04 11:07:00,67.4,51.2,29.86,SE,142,0.0,1.0,56,0.00,,---,0.01,VWS V14.01,2013-05-04 16:07:00,
2013-05-04 11:09:00,67.4,49.7,29.86,South,172,4.0,6.0,53,0.00,,---,0.01,VWS V14.01,2013-05-04 16:09:00,
2013-05-04 11:10:00,67.6,49.9,29.86,SSE,162,3.0,5.0,53,0.00,,---,0.01,VWS V14.01,2013-05-04 16:10:00,
2013-05-04 11:12:00,67.6,49.9,29.86,SSE,166,2.0,6.0,53,0.00,,---,0.01,VWS V14.01,2013-05-04 16:12:00,
2013-05-04 11:13:00,67.6,49.9,29.86,SSE,166,1.0,1.0,53,0.00,,---,0.01,VWS V14.01,2013-05-04 16:13:00,
2013-05-04 11:14:00,67.6,49.9,29.86,SSE,148,3.0,3.0,53,0.00,,---,0.01,VWS V14.01,2013-05-04 16:14:00,
2013-05-04 11:15:00,67.6,49.9,29.86,SSE,150,0.0,2.0,53,0.00,,---,0.01,VWS V14.01,2013-05-04 16:15:00,
2013-05-04 11:18:00,67.8,49.5,29.86,SSE,147,1.0,6.0,52,0.00,,---,0.01,VWS V14.01,2013-05-04 16:18:00,
2013-05-04 11:19:00,67.8,49.5,29.86,SSE,147,0.0,1.0,52,0.00,,---,0.01,VWS V14.01,2013-05-04 16:19:00,
2013-05-04 11:21:00,67.9,50.2,29.86,SSE,159,3.0,6.0,53,0.00,,---,0.01,VWS V14.01,2013-05-04 16:21:00,
2013-05-04 11:22:00,67.8,49.5,29.86,SE,135,3.0,4.0,52,0.00,,---,0.01,VWS V14.01,2013-05-04 16:22:00,
2013-05-04 11:24:00,67.8,50.1,29.86,SSE,153,3.0,4.0,53,0.00,,---,0.01,VWS V14.01,2013-05-04 16:24:00,
2013-05-04 11:25:00,67.8,50.1,29.86,ESE,119,2.0,3.0,53,0.00,,---,0.01,VWS V14.01,2013-05-04 16:25:00,
2013-05-04 11:26:00,67.8,50.1,29.86,South,177,1.0,4.0,53,0.00,,---,0.01,VWS V14.01,2013-05-04 16:26:00,
2013-05-04 11:27:00,67.8,50.6,29.86,SSE,157,2.0,4.0,54,0.00,,---,0.01,VWS V14.01,2013-05-04 16:27:00,
2013-05-04 11:29:00,67.6,48.8,29.86,SSE,158,0.0,1.0,51,0.00,,---,0.01,VWS V14.01,2013-05-04 16:29:00,
2013-05-04 11:31:00,67.8,50.1,29.86,SSE,158,2.0,4.0,53,0.00,,---,0.01,VWS V14.01,2013-05-04 16:31:00,
2013-05-04 11:32:00,67.9,50.2,29.86,SSE,152,3.0,5.0,53,0.00,,---,0.01,VWS V14.01,2013-05-04 16:32:00,
2013-05-04 11:34:00,67.9,49.7,29.86,SE,127,1.0,3.0,52,0.00,,---,0.01,VWS V14.01,2013-05-04 16:34:00,
2013-05-04 11:36:00,68.1,49.8,29.86,SSE,166,2.0,3.0,52,0.00,,---,0.01,VWS V14.01,2013-05-04 16:36:00,
2013-05-04 11:37:00,68.1,49.8,29.86,SE,133,2.0,3.0,52,0.00,,---,0.01,VWS V14.01,2013-05-04 16:37:00,
2013-05-04 11:38:00,68.1,49.8,29.86,SSE,155,2.0,2.0,52,0.00,,---,0.01,VWS V14.01,2013-05-04 16:38:00,
2013-05-04 11:40:00,68.1,49.8,29.86,SE,129,4.0,4.0,52,0.00,,---,0.01,VWS V14.01,2013-05-04 16:40:00,
2013-05-04 11:41:00,68.1,49.8,29.86,SE,135,7.0,10.0,52,0.00,,---,0.01,VWS V14.01,2013-05-04 16:41:00,
2013-05-04 11:43:00,68.3,50.0,29.86,ESE,120,2.0,4.0,52,0.00,,---,0.01,VWS V14.01,2013-05-04 16:43:00,
2013-05-04 11:44:00,68.3,50.0,29.86,ESE,109,2.0,4.0,52,0.00,,---,0.01,VWS V14.01,2013-05-04 16:44:00,
2013-05-04 11:45:00,68.4,50.1,29.86,ESE,120,4.0,4.0,52,0.00,,---,0.01,VWS V14.01,2013-05-04 16:45:00,
2013-05-04 11:47:00,68.3,49.5,29.86,ENE,70,3.0,4.0,51,0.00,,---,0.01,VWS V14.01,2013-05-04 16:47:00,
2013-05-04 11:49:00,68.3,49.5,29.86,ESE,123,0.0,0.0,51,0.00,,---,0.01,VWS V14.01,2013-05-04 16:49:00,
2013-05-04 11:51:00,68.3,49.5,29.86,ESE,119,3.0,3.0,51,0.00,,---,0.01,VWS V14.01,2013-05-04 16:51:00,
2013-05-04 11:52:00,68.3,49.5,29.86,SSE,162,3.0,3.0,51,0.00,,---,0.01,VWS V14.01,2013-05-04 16:52:00,
2013-05-04 11:55:00,68.1,49.8,29.86,SE,136,4.0,6.0,52,0.00,,---,0.01,VWS V14.01,2013-05-04 16:55:00,
2013-05-04 11:56:00,68.1,48.8,29.86,SE,143,2.0,4.0,50,0.00,,---,0.01,VWS V14.01,2013-05-04 16:56:00,
2013-05-04 11:57:00,68.1,49.8,29.86,South,179,1.0,2.0,52,0.00,,---,0.01,VWS V14.01,2013-05-04 16:57:00,
2013-05-04 11:58:00,68.3,50.5,29.86,SW,220,2.0,2.0,53,0.00,,---,0.01,VWS V14.01,2013-05-04 16:58:00,
2013-05-04 12:00:00,68.4,49.6,29.86,SSE,160,2.0,6.0,51,0.00,,---,0.01,VWS V14.01,2013-05-04 17:00:00,
2013-05-04 12:01:00,68.6,50.3,29.86,ESE,108,2.0,3.0,52,0.00,,---,0.01,VWS V14.01,2013-05-04 17:01:00,
2013-05-04 12:02:00,68.8,50.5,29.86,East,79,3.0,6.0,52,0.00,,---,0.01,VWS V14.01,2013-05-04 17:02:00,
2013-05-04 12:03:00,68.9,50.0,29.86,SE,131,5.0,8.0,51,0.00,,---,0.01,VWS V14.01,2013-05-04 17:03:00,
2013-05-04 12:05:00,69.1,49.7,29.86,SSE,153,0.0,5.0,50,0.00,,---,0.01,VWS V14.01,2013-05-04 17:05:00,
2013-05-04 12:06:00,69.3,50.9,29.86,SE,124,1.0,2.0,52,0.00,,---,0.01,VWS V14.01,2013-05-04 17:06:00,
2013-05-04 12:07:00,69.4,51.0,29.86,ENE,64,3.0,3.0,52,0.00,,---,0.01,VWS V14.01,2013-05-04 17:07:00,
2013-05-04 12:08:00,69.4,50.0,29.86,East,90,2.0,3.0,50,0.00,,---,0.01,VWS V14.01,2013-05-04 17:08:00,
2013-05-04 12:10:00,69.8,51.4,29.86,NE,36,1.0,2.0,52,0.00,,---,0.01,VWS V14.01,2013-05-04 17:10:00,
2013-05-04 12:12:00,69.9,51.5,29.86,East,91,2.0,2.0,52,0.00,,---,0.01,VWS V14.01,2013-05-04 17:12:00,
2013-05-04 12:13:00,70.1,51.2,29.86,ESE,108,0.0,1.0,51,0.00,,---,0.01,VWS V14.01,2013-05-04 17:13:00,
2013-05-04 12:14:00,70.3,52.4,29.84,ESE,106,0.0,0.0,53,0.00,,---,0.01,VWS V14.01,2013-05-04 17:14:00,
2013-05-04 12:16:00,70.4,51.4,29.84,SE,124,4.0,4.0,51,0.00,,---,0.01,VWS V14.01,2013-05-04 17:16:00,
2013-05-04 12:18:00,70.3,49.1,29.84,SE,132,3.0,6.0,47,0.00,,---,0.01,VWS V14.01,2013-05-04 17:18:00,
2013-05-04 12:19:00,70.3,50.8,29.84,SE,134,4.0,5.0,50,0.00,,---,0.01,VWS V14.01,2013-05-04 17:19:00,
2013-05-04 12:20:00,70.1,50.1,29.84,South,172,0.0,1.0,49,0.00,,---,0.01,VWS V14.01,2013-05-04 17:20:00,
2013-05-04 12:22:00,69.9,49.9,29.84,South,172,3.0,4.0,49,0.00,,---,0.01,VWS V14.01,2013-05-04 17:22:00,
2013-05-04 12:24:00,69.9,49.3,29.84,ESE,113,2.0,5.0,48,0.00,,---,0.01,VWS V14.01,2013-05-04 17:24:00,
2013-05-04 12:25:00,69.9,49.9,29.84,East,93,2.0,5.0,49,0.00,,---,0.01,VWS V14.01,2013-05-04 17:25:00,
2013-05-04 12:26:00,69.9,49.3,29.84,East,93,2.0,2.0,48,0.00,,---,0.01,VWS V14.01,2013-05-04 17:26:00,
2013-05-04 12:29:00,69.6,49.1,29.85,ENE,78,2.0,5.0,48,0.00,,---,0.01,VWS V14.01,2013-05-04 17:29:00,
2013-05-04 12:31:00,69.6,50.2,29.85,SSE,150,3.0,3.0,50,0.00,,---,0.01,VWS V14.01,2013-05-04 17:31:00,
2013-05-04 12:34:00,69.8,50.3,29.85,SE,139,6.0,6.0,50,0.00,,---,0.01,VWS V14.01,2013-05-04 17:34:00,
2013-05-04 12:35:00,69.8,50.3,29.85,South,188,2.0,6.0,50,0.00,,---,0.01,VWS V14.01,2013-05-04 17:35:00,
2013-05-04 12:36:00,70.1,50.6,29.85,SE,143,1.0,4.0,50,0.00,,---,0.01,VWS V14.01,2013-05-04 17:36:00,
2013-05-04 12:39:00,70.4,52.5,29.85,SE,130,3.0,3.0,53,0.00,,---,0.01,VWS V14.01,2013-05-04 17:39:00,
2013-05-04 12:40:00,70.4,52.5,29.85,South,176,3.0,4.0,53,0.00,,---,0.01,VWS V14.01,2013-05-04 17:40:00,
2013-05-04 12:41:00,70.4,52.5,29.85,South,176,3.0,3.0,53,0.00,,---,0.01,VWS V14.01,2013-05-04 17:41:00,
2013-05-04 12:44:00,70.6,49.4,29.84,SE,129,2.0,3.0,47,0.00,,---,0.01,VWS V14.01,2013-05-04 17:44:00,
2013-05-04 12:45:00,70.8,49.6,29.84,ENE,75,3.0,4.0,47,0.00,,---,0.01,VWS V14.01,2013-05-04 17:45:00,
2013-05-04 12:46:00,70.8,49.6,29.84,SSE,159,4.0,6.0,47,0.00,,---,0.01,VWS V14.01,2013-05-04 17:46:00,
2013-05-04 12:47:00,70.8,49.0,29.84,ESE,115,4.0,6.0,46,0.00,,---,0.01,VWS V14.01,2013-05-04 17:47:00,
2013-05-04 12:49:00,70.9,50.2,29.84,East,88,3.0,3.0,48,0.00,,---,0.01,VWS V14.01,2013-05-04 17:49:00,
2013-05-04 12:51:00,70.9,49.7,29.84,SE,131,3.0,9.0,47,0.00,,---,0.01,VWS V14.01,2013-05-04 17:51:00,
2013-05-04 12:52:00,70.9,50.2,29.84,ESE,120,1.0,3.0,48,0.00,,---,0.01,VWS V14.01,2013-05-04 17:52:00,
2013-05-04 12:55:00,70.8,49.6,29.84,East,93,0.0,0.0,47,0.00,,---,0.01,VWS V14.01,2013-05-04 17:55:00,
2013-05-04 12:56:00,70.8,50.2,29.84,SSE,151,3.0,7.0,48,0.00,,---,0.01,VWS V14.01,2013-05-04 17:56:00,
2013-05-04 12:57:00,70.8,50.2,29.84,East,100,0.0,3.0,48,0.00,,---,0.01,VWS V14.01,2013-05-04 17:57:00,
2013-05-04 13:01:00,71.1,51.5,29.83,ESE,119,0.0,3.0,50,0.00,,---,0.01,VWS V14.01,2013-05-04 18:01:00,
2013-05-04 13:02:00,71.3,51.7,29.83,ESE,103,0.0,4.0,50,0.00,,---,0.01,VWS V14.01,2013-05-04 18:02:00,
2013-05-04 13:03:00,71.6,52.0,29.83,East,89,0.0,2.0,50,0.00,,---,0.01,VWS V14.01,2013-05-04 18:03:00,
2013-05-04 13:04:00,71.8,51.6,29.83,East,85,1.0,3.0,49,0.00,,---,0.01,VWS V14.01,2013-05-04 18:04:00,
2013-05-04 13:06:00,72.0,51.8,29.83,ESE,108,1.0,1.0,49,0.00,,---,0.01,VWS V14.01,2013-05-04 18:06:00,
2013-05-04 13:07:00,72.0,50.7,29.83,NE,38,1.0,4.0,47,0.00,,---,0.01,VWS V14.01,2013-05-04 18:07:00,
2013-05-04 13:09:00,72.0,50.7,29.83,ESE,115,2.0,3.0,47,0.00,,---,0.01,VWS V14.01,2013-05-04 18:09:00,
2013-05-04 13:10:00,71.8,48.7,29.83,SE,124,0.0,3.0,44,0.00,,---,0.01,VWS V14.01,2013-05-04 18:10:00,
2013-05-04 13:12:00,71.8,50.5,29.83,NE,55,0.0,1.0,47,0.00,,---,0.01,VWS V14.01,2013-05-04 18:12:00,
2013-05-04 13:13:00,71.8,49.9,29.83,East,101,3.0,7.0,46,0.00,,---,0.01,VWS V14.01,2013-05-04 18:13:00,
2013-05-04 13:14:00,71.8,49.9,29.83,East,101,3.0,3.0,46,0.00,,---,0.01,VWS V14.01,2013-05-04 18:14:00,
2013-05-04 13:15:00,71.8,49.9,29.83,SSE,167,4.0,4.0,46,0.00,,---,0.01,VWS V14.01,2013-05-04 18:15:00,
2013-05-04 13:16:00,71.6,50.3,29.83,East,88,1.0,5.0,47,0.00,,---,0.01,VWS V14.01,2013-05-04 18:16:00,
2013-05-04 13:18:00,71.6,50.9,29.83,East,97,5.0,5.0,48,0.00,,---,0.01,VWS V14.01,2013-05-04 18:18:00,
2013-05-04 13:20:00,71.6,50.3,29.83,North,7,3.0,7.0,47,0.00,,---,0.01,VWS V14.01,2013-05-04 18:20:00,
2013-05-04 13:22:00,71.5,50.8,29.83,ESE,122,1.0,3.0,48,0.00,,---,0.01,VWS V14.01,2013-05-04 18:22:00,
2013-05-04 13:23:00,71.5,50.8,29.83,ENE,78,0.0,0.0,48,0.00,,---,0.01,VWS V14.01,2013-05-04 18:23:00,
2013-05-04 13:24:00,71.6,50.9,29.83,ENE,60,2.0,5.0,48,0.00,,---,0.01,VWS V14.01,2013-05-04 18:24:00,
2013-05-04 13:27:00,71.5,48.5,29.83,East,82,2.0,3.0,44,0.00,,---,0.01,VWS V14.01,2013-05-04 18:27:00,
2013-05-04 13:28:00,71.5,49.1,29.83,East,101,0.0,1.0,45,0.00,,---,0.01,VWS V14.01,2013-05-04 18:28:00,
2013-05-04 13:29:00,71.3,49.5,29.83,ESE,107,3.0,5.0,46,0.00,,---,0.01,VWS V14.01,2013-05-04 18:29:00,
2013-05-04 13:30:00,71.3,49.5,29.83,SE,140,1.0,3.0,46,0.00,,---,0.01,VWS V14.01,2013-05-04 18:30:00,
2013-05-04 13:33:00,71.5,51.9,29.83,SSE,167,4.0,4.0,50,0.00,,---,0.01,VWS V14.01,2013-05-04 18:33:00,
2013-05-04 13:34:00,71.6,50.3,29.83,SE,139,2.0,4.0,47,0.00,,---,0.01,VWS V14.01,2013-05-04 18:34:00,
2013-05-04 13:35:00,71.8,51.1,29.83,East,100,6.0,10.0,48,0.00,,---,0.01,VWS V14.01,2013-05-04 18:35:00,
2013-05-04 13:36:00,71.8,49.9,29.83,East,99,0.0,6.0,46,0.00,,---,0.01,VWS V14.01,2013-05-04 18:36:00,
2013-05-04 13:38:00,72.1,51.9,29.83,ESE,108,2.0,3.0,49,0.00,,---,0.01,VWS V14.01,2013-05-04 18:38:00,
2013-05-04 13:40:00,72.1,49.6,29.83,ESE,106,0.0,5.0,45,0.00,,---,0.01,VWS V14.01,2013-05-04 18:40:00,
2013-05-04 13:41:00,72.1,50.2,29.83,ESE,119,2.0,2.0,46,0.00,,---,0.01,VWS V14.01,2013-05-04 18:41:00,
2013-05-04 13:44:00,72.3,51.0,29.83,ESE,105,2.0,3.0,47,0.00,,---,0.01,VWS V14.01,2013-05-04 18:44:00,
2013-05-04 13:45:00,72.3,50.4,29.83,ESE,121,2.0,5.0,46,0.00,,---,0.01,VWS V14.01,2013-05-04 18:45:00,
2013-05-04 13:46:00,72.3,50.4,29.83,South,172,1.0,2.0,46,0.00,,---,0.01,VWS V14.01,2013-05-04 18:46:00,
2013-05-04 13:47:00,72.3,51.0,29.83,ESE,115,2.0,2.0,47,0.00,,---,0.01,VWS V14.01,2013-05-04 18:47:00,
2013-05-04 13:50:00,72.3,49.2,29.83,SE,127,4.0,6.0,44,0.00,,---,0.01,VWS V14.01,2013-05-04 18:50:00,
2013-05-04 13:52:00,72.1,49.6,29.83,ESE,110,0.0,3.0,45,0.00,,---,0.01,VWS V14.01,2013-05-04 18:52:00,
2013-05-04 13:53:00,72.1,49.6,29.83,NW,305,0.0,1.0,45,0.00,,---,0.01,VWS V14.01,2013-05-04 18:53:00,
2013-05-04 13:54:00,72.3,52.6,29.83,SSE,165,1.0,1.0,50,0.00,,---,0.01,VWS V14.01,2013-05-04 18:54:00,
2013-05-04 13:55:00,72.5,52.3,29.83,East,81,1.0,4.0,49,0.00,,---,0.01,VWS V14.01,2013-05-04 18:55:00,
2013-05-04 13:57:00,72.7,51.3,29.83,SE,129,3.0,5.0,47,0.00,,---,0.01,VWS V14.01,2013-05-04 18:57:00,
2013-05-04 13:58:00,72.7,50.8,29.83,SE,136,1.0,7.0,46,0.00,,---,0.01,VWS V14.01,2013-05-04 18:58:00,
2013-05-04 14:00:00,72.5,49.4,29.83,SE,126,3.0,5.0,44,0.00,,---,0.01,VWS V14.01,2013-05-04 19:00:00,
2013-05-04 14:01:00,72.5,49.4,29.83,SSE,152,4.0,4.0,44,0.00,,---,0.01,VWS V14.01,2013-05-04 19:01:00,
2013-05-04 14:02:00,72.5,51.2,29.83,SE,130,2.0,6.0,47,0.00,,---,0.01,VWS V14.01,2013-05-04 19:02:00,
2013-05-04 14:04:00,72.3,50.4,29.83,NNW,328,1.0,8.0,46,0.00,,---,0.01,VWS V14.01,2013-05-04 19:04:00,
2013-05-04 14:05:00,72.3,49.2,29.83,South,182,1.0,3.0,44,0.00,,---,0.01,VWS V14.01,2013-05-04 19:05:00,
2013-05-04 14:06:00,72.3,49.2,29.83,SE,128,2.0,2.0,44,0.00,,---,0.01,VWS V14.01,2013-05-04 19:06:00,
2013-05-04 14:07:00,72.3,51.0,29.83,ESE,115,2.0,4.0,47,0.00,,---,0.01,VWS V14.01,2013-05-04 19:07:00,
2013-05-04 14:08:00,72.3,51.0,29.83,ESE,105,0.0,4.0,47,0.00,,---,0.01,VWS V14.01,2013-05-04 19:08:00,
2013-05-04 14:10:00,72.5,49.4,29.83,East,95,0.0,1.0,44,0.00,,---,0.01,VWS V14.01,2013-05-04 19:10:00,
2013-05-04 14:11:00,72.5,50.0,29.83,ESE,108,1.0,1.0,45,0.00,,---,0.01,VWS V14.01,2013-05-04 19:11:00,
2013-05-04 14:13:00,72.7,49.5,29.83,SSE,147,9.0,9.0,44,0.00,,---,0.01,VWS V14.01,2013-05-04 19:13:00,
2013-05-04 14:14:00,72.7,48.9,29.83,SE,146,1.0,9.0,43,0.00,,---,0.01,VWS V14.01,2013-05-04 19:14:00,
2013-05-04 14:15:00,72.7,49.5,29.83,South,174,3.0,4.0,44,0.00,,---,0.01,VWS V14.01,2013-05-04 19:15:00,
2013-05-04 14:16:00,72.7,49.5,29.83,ESE,102,2.0,4.0,44,0.00,,---,0.01,VWS V14.01,2013-05-04 19:16:00,
2013-05-04 14:19:00,72.8,49.6,29.83,SE,138,0.0,1.0,44,0.00,,---,0.01,VWS V14.01,2013-05-04 19:19:00,
2013-05-04 14:20:00,73.0,51.0,29.83,ESE,106,2.0,4.0,46,0.00,,---,0.01,VWS V14.01,2013-05-04 19:20:00,
2013-05-04 14:21:00,73.0,49.8,29.83,North,357,2.0,2.0,44,0.00,,---,0.01,VWS V14.01,2013-05-04 19:21:00,
2013-05-04 14:22:00,73.0,49.8,29.83,East,83,7.0,7.0,44,0.00,,---,0.01,VWS V14.01,2013-05-04 19:22:00,
2013-05-04 14:24:00,73.0,48.6,29.83,North,0,2.0,2.0,42,0.00,,---,0.01,VWS V14.01,2013-05-04 19:24:00,
2013-05-04 14:26:00,73.0,49.8,29.83,SE,131,5.0,5.0,44,0.00,,---,0.01,VWS V14.01,2013-05-04 19:26:00,
2013-05-04 14:27:00,73.0,47.9,29.83,ESE,103,2.0,5.0,41,0.00,,---,0.01,VWS V14.01,2013-05-04 19:27:00,
2013-05-04 14:29:00,73.0,47.9,29.82,SE,140,2.0,6.0,41,0.00,,---,0.01,VWS V14.01,2013-05-04 19:29:00,
2013-05-04 14:30:00,73.0,48.6,29.82,East,90,1.0,3.0,42,0.00,,---,0.01,VWS V14.01,2013-05-04 19:30:00,
2013-05-04 14:31:00,73.0,48.6,29.82,SE,138,2.0,2.0,42,0.00,,---,0.01,VWS V14.01,2013-05-04 19:31:00,
2013-05-04 14:34:00,72.8,49.6,29.82,SSW,202,2.0,4.0,44,0.00,,---,0.01,VWS V14.01,2013-05-04 19:34:00,
2013-05-04 14:35:00,72.8,49.0,29.82,ENE,57,1.0,5.0,43,0.00,,---,0.01,VWS V14.01,2013-05-04 19:35:00,
2013-05-04 14:36:00,72.8,49.6,29.82,ENE,60,0.0,1.0,44,0.00,,---,0.01,VWS V14.01,2013-05-04 19:36:00,
2013-05-04 14:37:00,73.0,49.8,29.82,East,86,0.0,1.0,44,0.00,,---,0.01,VWS V14.01,2013-05-04 19:37:00,
2013-05-04 14:41:00,73.5,50.3,29.82,SE,144,3.0,3.0,44,0.00,,---,0.01,VWS V14.01,2013-05-04 19:41:00,
2013-05-04 14:42:00,73.5,49.7,29.82,SE,136,5.0,7.0,43,0.00,,---,0.01,VWS V14.01,2013-05-04 19:42:00,
2013-05-04 14:44:00,73.2,48.1,29.82,ESE,106,1.0,3.0,41,0.00,,---,0.01,VWS V14.01,2013-05-04 19:44:00,
2013-05-04 14:46:00,73.0,49.2,29.82,East,81,5.0,5.0,43,0.00,,---,0.01,VWS V14.01,2013-05-04 19:46:00,
2013-05-04 14:48:00,73.0,49.2,29.82,SE,131,2.0,5.0,43,0.00,,---,0.01,VWS V14.01,2013-05-04 19:48:00,
2013-05-04 14:49:00,72.7,48.3,29.82,ESE,123,3.0,3.0,42,0.00,,---,0.01,VWS V14.01,2013-05-04 19:49:00,
2013-05-04 14:51:00,72.5,50.0,29.82,SE,126,3.0,3.0,45,0.00,,---,0.01,VWS V14.01,2013-05-04 19:51:00,
2013-05-04 14:52:00,72.5,50.0,29.82,NE,46,1.0,3.0,45,0.00,,---,0.01,VWS V14.01,2013-05-04 19:52:00,
2013-05-04 14:53:00,72.5,49.4,29.82,NE,46,1.0,1.0,44,0.00,,---,0.01,VWS V14.01,2013-05-04 19:53:00,
2013-05-04 14:55:00,72.8,50.2,29.82,East,82,0.0,2.0,45,0.00,,---,0.01,VWS V14.01,2013-05-04 19:55:00,
2013-05-04 14:56:00,72.8,50.2,29.82,East,90,1.0,2.0,45,0.00,,---,0.01,VWS V14.01,2013-05-04 19:56:00,
2013-05-04 14:57:00,72.8,51.4,29.82,ENE,70,1.0,3.0,47,0.00,,---,0.01,VWS V14.01,2013-05-04 19:57:00,
2013-05-04 14:58:00,72.8,51.4,29.82,ENE,70,1.0,1.0,47,0.00,,---,0.01,VWS V14.01,2013-05-04 19:58:00,
2013-05-04 15:00:00,72.7,50.2,29.82,ESE,103,2.0,3.0,45,0.00,,---,0.01,VWS V14.01,2013-05-04 20:00:00,
2013-05-04 15:01:00,72.7,49.5,29.82,ENE,68,3.0,5.0,44,0.00,,---,0.01,VWS V14.01,2013-05-04 20:01:00,
2013-05-04 15:02:00,72.3,48.6,29.82,SE,124,1.0,6.0,43,0.00,,---,0.01,VWS V14.01,2013-05-04 20:02:00,
2013-05-04 15:03:00,72.1,48.4,29.82,ESE,123,2.0,3.0,43,0.00,,---,0.01,VWS V14.01,2013-05-04 20:03:00,
2013-05-04 15:06:00,71.6,47.3,29.82,ESE,112,0.0,3.0,42,0.00,,---,0.01,VWS V14.01,2013-05-04 20:06:00,
2013-05-04 15:07:00,71.6,47.3,29.82,ESE,112,0.0,0.0,42,0.00,,---,0.01,VWS V14.01,2013-05-04 20:07:00,
2013-05-04 15:08:00,71.6,47.3,29.82,East,90,2.0,2.0,42,0.00,,---,0.01,VWS V14.01,2013-05-04 20:08:00,
2013-05-04 15:09:00,71.6,49.8,29.82,SE,124,4.0,4.0,46,0.00,,---,0.01,VWS V14.01,2013-05-04 20:09:00,
2013-05-04 15:11:00,72.0,47.0,29.82,SE,132,3.0,4.0,41,0.00,,---,0.01,VWS V14.01,2013-05-04 20:11:00,
2013-05-04 15:13:00,72.1,49.0,29.82,SE,145,4.0,4.0,44,0.00,,---,0.01,VWS V14.01,2013-05-04 20:13:00,
2013-05-04 15:14:00,72.3,47.3,29.82,ESE,123,7.0,7.0,41,0.00,,---,0.01,VWS V14.01,2013-05-04 20:14:00,
2013-05-04 15:16:00,72.1,46.5,29.82,SE,134,0.0,6.0,40,0.00,,---,0.01,VWS V14.01,2013-05-04 20:16:00,
2013-05-04 15:19:00,72.1,46.5,29.82,East,82,2.0,4.0,40,0.00,,---,0.01,VWS V14.01,2013-05-04 20:19:00,
2013-05-04 15:20:00,72.3,46.7,29.82,ESE,110,2.0,3.0,40,0.00,,---,0.01,VWS V14.01,2013-05-04 20:20:00,
2013-05-04 15:24:00,72.3,46.0,29.82,SSE,147,0.0,6.0,39,0.00,,---,0.01,VWS V14.01,2013-05-04 20:24:00,
2013-05-04 15:25:00,72.5,46.8,29.82,ESE,107,0.0,3.0,40,0.00,,---,0.01,VWS V14.01,2013-05-04 20:25:00,
2013-05-04 15:26:00,72.5,47.5,29.82,East,93,0.0,1.0,41,0.00,,---,0.01,VWS V14.01,2013-05-04 20:26:00,
2013-05-04 15:27:00,72.5,46.8,29.82,SE,143,2.0,3.0,40,0.00,,---,0.01,VWS V14.01,2013-05-04 20:27:00,
2013-05-04 15:29:00,72.3,46.7,29.82,ENE,76,2.0,2.0,40,0.00,,---,0.01,VWS V14.01,2013-05-04 20:29:00,
2013-05-04 15:30:00,72.3,46.7,29.82,NNW,337,0.0,0.0,40,0.00,,---,0.01,VWS V14.01,2013-05-04 20:30:00,
2013-05-04 15:32:00,72.3,46.0,29.82,NNE,20,0.0,4.0,39,0.00,,---,0.01,VWS V14.01,2013-05-04 20:32:00,
2013-05-04 15:33:00,72.3,46.0,29.82,NNE,20,0.0,0.0,39,0.00,,---,0.01,VWS V14.01,2013-05-04 20:33:00,
2013-05-04 15:36:00,72.5,45.5,29.82,ESE,115,4.0,4.0,38,0.00,,---,0.01,VWS V14.01,2013-05-04 20:36:00,
2013-05-04 15:38:00,72.7,46.3,29.82,SSE,150,1.0,2.0,39,0.00,,---,0.01,VWS V14.01,2013-05-04 20:38:00,
2013-05-04 15:39:00,72.7,46.3,29.82,SSW,193,7.0,7.0,39,0.00,,---,0.01,VWS V14.01,2013-05-04 20:39:00,
2013-05-04 15:41:00,72.5,45.5,29.82,East,97,5.0,6.0,38,0.00,,---,0.01,VWS V14.01,2013-05-04 20:41:00,
2013-05-04 15:43:00,72.7,46.3,29.82,North,9,2.0,6.0,39,0.00,,---,0.01,VWS V14.01,2013-05-04 20:43:00,
2013-05-04 15:46:00,72.7,45.0,29.81,ESE,113,3.0,3.0,37,0.00,,---,0.01,VWS V14.01,2013-05-04 20:46:00,
2013-05-04 15:47:00,72.7,43.5,29.81,ESE,117,4.0,4.0,35,0.00,,---,0.01,VWS V14.01,2013-05-04 20:47:00,
2013-05-04 15:48:00,72.7,44.2,29.81,ESE,118,2.0,4.0,36,0.00,,---,0.01,VWS V14.01,2013-05-04 20:48:00,
2013-05-04 15:49:00,72.8,44.3,29.81,ESE,105,0.0,2.0,36,0.00,,---,0.01,VWS V14.01,2013-05-04 20:49:00,
2013-05-04 15:50:00,73.0,44.5,29.81,ESE,117,4.0,7.0,36,0.00,,---,0.01,VWS V14.01,2013-05-04 20:50:00,
2013-05-04 15:53:00,73.0,44.5,29.81,SE,146,1.0,1.0,36,0.00,,---,0.01,VWS V14.01,2013-05-04 20:53:00,
2013-05-04 15:54:00,73.0,43.8,29.81,East,89,1.0,5.0,35,0.00,,---,0.01,VWS V14.01,2013-05-04 20:54:00,
2013-05-04 15:55:00,73.0,44.5,29.81,ESE,105,3.0,4.0,36,0.00,,---,0.01,VWS V14.01,2013-05-04 20:55:00,
2013-05-04 15:57:00,73.2,45.4,29.81,East,87,2.0,2.0,37,0.00,,---,0.01,VWS V14.01,2013-05-04 20:57:00,
2013-05-04 15:58:00,73.3,46.9,29.81,SE,125,6.0,6.0,39,0.00,,---,0.01,VWS V14.01,2013-05-04 20:58:00,
2013-05-04 15:59:00,73.3,46.9,29.82,ESE,103,2.0,6.0,39,0.00,,---,0.01,VWS V14.01,2013-05-04 20:59:00,
2013-05-04 16:00:00,73.3,44.0,29.82,NE,53,1.0,8.0,35,0.00,,---,0.01,VWS V14.01,2013-05-04 21:00:00,
2013-05-04 16:01:00,73.3,44.0,29.82,South,169,4.0,4.0,35,0.00,,---,0.01,VWS V14.01,2013-05-04 21:01:00,
2013-05-04 16:02:00,73.2,44.7,29.82,ESE,105,3.0,4.0,36,0.00,,---,0.01,VWS V14.01,2013-05-04 21:02:00,
2013-05-04 16:04:00,73.2,43.9,29.82,SE,128,1.0,2.0,35,0.00,,---,0.01,VWS V14.01,2013-05-04 21:04:00,
2013-05-04 16:06:00,73.3,45.5,29.82,East,91,0.0,0.0,37,0.00,,---,0.01,VWS V14.01,2013-05-04 21:06:00,
2013-05-04 16:07:00,73.2,46.1,29.82,SE,128,3.0,4.0,38,0.00,,---,0.01,VWS V14.01,2013-05-04 21:07:00,
2013-05-04 16:09:00,73.0,43.0,29.82,South,181,2.0,4.0,34,0.00,,---,0.01,VWS V14.01,2013-05-04 21:09:00,
2013-05-04 16:10:00,73.0,44.5,29.82,North,0,0.0,3.0,36,0.00,,---,0.01,VWS V14.01,2013-05-04 21:10:00,
2013-05-04 16:12:00,73.0,46.6,29.82,South,170,0.0,1.0,39,0.00,,---,0.01,VWS V14.01,2013-05-04 21:12:00,
2013-05-04 16:13:00,73.2,48.8,29.82,NNE,13,1.0,3.0,42,0.00,,---,0.01,VWS V14.01,2013-05-04 21:13:00,
2013-05-04 16:14:00,73.2,48.8,29.81,ESE,111,2.0,2.0,42,0.00,,---,0.01,VWS V14.01,2013-05-04 21:14:00,
2013-05-04 16:15:00,73.3,47.5,29.81,NE,51,0.0,3.0,40,0.00,,---,0.01,VWS V14.01,2013-05-04 21:15:00,
2013-05-04 16:18:00,73.5,46.4,29.81,East,99,0.0,2.0,38,0.00,,---,0.01,VWS V14.01,2013-05-04 21:18:00,
2013-05-04 16:19:00,73.7,46.5,29.81,East,95,0.0,4.0,38,0.00,,---,0.01,VWS V14.01,2013-05-04 21:19:00,
2013-05-04 16:20:00,73.7,47.2,29.81,ESE,115,2.0,2.0,39,0.00,,---,0.01,VWS V14.01,2013-05-04 21:20:00,
2013-05-04 16:21:00,73.5,45.7,29.81,ESE,108,3.0,6.0,37,0.00,,---,0.01,VWS V14.01,2013-05-04 21:21:00,
2013-05-04 16:24:00,73.2,46.8,29.81,SE,132,0.0,6.0,39,0.00,,---,0.01,VWS V14.01,2013-05-04 21:24:00,
2013-05-04 16:25:00,73.0,45.9,29.81,ESE,107,1.0,2.0,38,0.00,,---,0.01,VWS V14.01,2013-05-04 21:25:00,
2013-05-04 16:28:00,72.7,48.3,29.81,East,97,2.0,2.0,42,0.00,,---,0.01,VWS V14.01,2013-05-04 21:28:00,
2013-05-04 16:30:00,72.5,46.8,29.82,ENE,72,2.0,3.0,40,0.00,,---,0.01,VWS V14.01,2013-05-04 21:30:00,
2013-05-04 16:31:00,72.3,45.3,29.82,East,89,2.0,2.0,38,0.00,,---,0.01,VWS V14.01,2013-05-04 21:31:00,
2013-05-04 16:32:00,72.3,45.3,29.82,East,98,0.0,2.0,38,0.00,,---,0.01,VWS V14.01,2013-05-04 21:32:00,
2013-05-04 16:33:00,72.3,45.3,29.82,ESE,105,4.0,4.0,38,0.00,,---,0.01,VWS V14.01,2013-05-04 21:33:00,
2013-05-04 16:35:00,72.0,45.0,29.82,East,96,2.0,4.0,38,0.00,,---,0.01,VWS V14.01,2013-05-04 21:35:00,
2013-05-04 16:36:00,72.0,45.0,29.82,SSE,165,0.0,4.0,38,0.00,,---,0.01,VWS V14.01,2013-05-04 21:36:00,
2013-05-04 16:37:00,72.0,44.3,29.82,East,96,2.0,3.0,37,0.00,,---,0.01,VWS V14.01,2013-05-04 21:37:00,
2013-05-04 16:38:00,71.8,44.8,29.82,East,98,0.0,0.0,38,0.00,,---,0.01,VWS V14.01,2013-05-04 21:38:00,
2013-05-04 16:39:00,71.8,46.9,29.82,ESE,102,1.0,1.0,41,0.00,,---,0.01,VWS V14.01,2013-05-04 21:39:00,
2013-05-04 16:41:00,71.6,44.7,29.82,East,84,0.0,1.0,38,0.00,,---,0.01,VWS V14.01,2013-05-04 21:41:00,
2013-05-04 16:44:00,71.5,45.3,29.81,ESE,122,1.0,2.0,39,0.00,,---,0.01,VWS V14.01,2013-05-04 21:44:00,
2013-05-04 16:45:00,71.5,44.6,29.81,NNW,338,9.0,9.0,38,0.00,,---,0.01,VWS V14.01,2013-05-04 21:45:00,
2013-05-04 16:46:00,71.3,44.4,29.81,NE,39,0.0,1.0,38,0.00,,---,0.01,VWS V14.01,2013-05-04 21:46:00,
2013-05-04 16:47:00,71.3,45.1,29.81,NE,39,1.0,1.0,39,0.00,,---,0.01,VWS V14.01,2013-05-04 21:47:00,
2013-05-04 16:50:00,70.9,44.7,29.81,ENE,70,1.0,2.0,39,0.00,,---,0.01,VWS V14.01,2013-05-04 21:50:00,
2013-05-04 16:51:00,70.9,44.0,29.81,ENE,70,1.0,1.0,38,0.00,,---,0.01,VWS V14.01,2013-05-04 21:51:00,
2013-05-04 16:53:00,70.9,44.7,29.81,ENE,72,0.0,1.0,39,0.00,,---,0.01,VWS V14.01,2013-05-04 21:53:00,
2013-05-04 16:54:00,70.9,46.0,29.81,ENE,72,0.0,0.0,41,0.00,,---,0.01,VWS V14.01,2013-05-04 21:54:00,
2013-05-04 16:56:00,71.1,48.1,29.81,East,96,0.0,1.0,44,0.00,,---,0.01,VWS V14.01,2013-05-04 21:56:00,
2013-05-04 16:57:00,71.1,46.2,29.81,ESE,103,3.0,3.0,41,0.00,,---,0.01,VWS V14.01,2013-05-04 21:57:00,
2013-05-04 16:59:00,71.3,45.1,29.82,ESE,115,2.0,5.0,39,0.00,,---,0.01,VWS V14.01,2013-05-04 21:59:00,
2013-05-04 17:00:00,71.5,43.9,29.82,SSE,161,3.0,3.0,37,0.00,,---,0.01,VWS V14.01,2013-05-04 22:00:00,
2013-05-04 17:04:00,71.3,44.4,29.82,SE,126,1.0,4.0,38,0.00,,---,0.01,VWS V14.01,2013-05-04 22:04:00,
2013-05-04 17:05:00,71.1,43.5,29.82,ESE,122,0.0,1.0,37,0.00,,---,0.01,VWS V14.01,2013-05-04 22:05:00,
2013-05-04 17:09:00,70.9,44.7,29.82,SE,142,1.0,1.0,39,0.00,,---,0.01,VWS V14.01,2013-05-04 22:09:00,
2013-05-04 17:10:00,70.9,44.7,29.82,SE,142,0.0,1.0,39,0.00,,---,0.01,VWS V14.01,2013-05-04 22:10:00,
2013-05-04 17:11:00,70.8,44.0,29.82,SE,136,0.0,0.0,38,0.00,,---,0.01,VWS V14.01,2013-05-04 22:11:00,
2013-05-04 17:13:00,70.8,44.0,29.82,ESE,106,2.0,2.0,38,0.00,,---,0.01,VWS V14.01,2013-05-04 22:13:00,
2013-05-04 17:15:00,70.8,42.5,29.82,ENE,59,1.0,3.0,36,0.00,,---,0.01,VWS V14.01,2013-05-04 22:15:00,
2013-05-04 17:16:00,70.8,43.3,29.82,ESE,103,1.0,2.0,37,0.00,,---,0.01,VWS V14.01,2013-05-04 22:16:00,
2013-05-04 17:19:00,70.6,42.4,29.82,ESE,111,2.0,2.0,36,0.00,,---,0.01,VWS V14.01,2013-05-04 22:19:00,
2013-05-04 17:20:00,70.6,42.4,29.82,ESE,123,1.0,3.0,36,0.00,,---,0.01,VWS V14.01,2013-05-04 22:20:00,
2013-05-04 17:21:00,70.6,42.4,29.82,ESE,113,0.0,1.0,36,0.00,,---,0.01,VWS V14.01,2013-05-04 22:21:00,
2013-05-04 17:24:00,70.8,43.3,29.82,East,85,0.0,6.0,37,0.00,,---,0.01,VWS V14.01,2013-05-04 22:24:00,
2013-05-04 17:26:00,70.8,43.3,29.82,SSE,159,0.0,0.0,37,0.00,,---,0.01,VWS V14.01,2013-05-04 22:26:00,
2013-05-04 17:27:00,70.9,44.0,29.82,ESE,121,0.0,2.0,38,0.00,,---,0.01,VWS V14.01,2013-05-04 22:27:00,
2013-05-04 17:28:00,70.9,44.0,29.82,SE,143,1.0,5.0,38,0.00,,---,0.01,VWS V14.01,2013-05-04 22:28:00,
2013-05-04 17:29:00,70.9,44.0,29.82,SSE,147,2.0,2.0,38,0.00,,---,0.01,VWS V14.01,2013-05-04 22:29:00,
2013-05-04 17:32:00,70.8,43.3,29.82,SSE,150,1.0,3.0,37,0.00,,---,0.01,VWS V14.01,2013-05-04 22:32:00,
2013-05-04 17:33:00,70.8,42.5,29.82,ESE,121,4.0,4.0,36,0.00,,---,0.01,VWS V14.01,2013-05-04 22:33:00,
2013-05-04 17:34:00,70.8,43.3,29.82,SE,138,3.0,3.0,37,0.00,,---,0.01,VWS V14.01,2013-05-04 22:34:00,
2013-05-04 17:35:00,70.8,42.5,29.82,ENE,74,0.0,4.0,36,0.00,,---,0.01,VWS V14.01,2013-05-04 22:35:00,
2013-05-04 17:36:00,70.6,42.4,29.82,ESE,115,1.0,3.0,36,0.00,,---,0.01,VWS V14.01,2013-05-04 22:36:00,
2013-05-04 17:38:00,70.6,42.4,29.82,ENE,77,2.0,2.0,36,0.00,,---,0.01,VWS V14.01,2013-05-04 22:38:00,
2013-05-04 17:39:00,70.6,42.4,29.82,SE,137,0.0,2.0,36,0.00,,---,0.01,VWS V14.01,2013-05-04 22:39:00,
2013-05-04 17:40:00,70.6,43.1,29.82,South,176,1.0,2.0,37,0.00,,---,0.01,VWS V14.01,2013-05-04 22:40:00,
2013-05-04 17:41:00,70.6,43.1,29.82,SE,136,0.0,2.0,37,0.00,,---,0.01,VWS V14.01,2013-05-04 22:41:00,
2013-05-04 17:43:00,70.4,42.9,29.82,ESE,110,0.0,2.0,37,0.00,,---,0.01,VWS V14.01,2013-05-04 22:43:00,
2013-05-04 17:45:00,70.4,43.6,29.82,ESE,116,0.0,0.0,38,0.00,,---,0.01,VWS V14.01,2013-05-04 22:45:00,
2013-05-04 17:46:00,70.4,42.9,29.82,East,95,2.0,4.0,37,0.00,,---,0.01,VWS V14.01,2013-05-04 22:46:00,
2013-05-04 17:47:00,70.4,42.2,29.82,ESE,120,1.0,1.0,36,0.00,,---,0.01,VWS V14.01,2013-05-04 22:47:00,
2013-05-04 17:48:00,70.4,42.9,29.82,SE,129,2.0,3.0,37,0.00,,---,0.01,VWS V14.01,2013-05-04 22:48:00,
2013-05-04 17:49:00,70.4,42.9,29.82,SE,139,3.0,3.0,37,0.00,,---,0.01,VWS V14.01,2013-05-04 22:49:00,
2013-05-04 17:50:00,70.3,42.1,29.82,ESE,117,1.0,2.0,36,0.00,,---,0.01,VWS V14.01,2013-05-04 22:50:00,
2013-05-04 17:52:00,70.3,43.5,29.82,SE,127,0.0,0.0,38,0.00,,---,0.01,VWS V14.01,2013-05-04 22:52:00,
2013-05-04 17:53:00,70.3,43.5,29.82,East,91,0.0,0.0,38,0.00,,---,0.01,VWS V14.01,2013-05-04 22:53:00,
2013-05-04 17:54:00,70.3,42.8,29.82,SE,127,3.0,3.0,37,0.00,,---,0.01,VWS V14.01,2013-05-04 22:54:00,
2013-05-04 17:55:00,70.3,42.8,29.82,East,82,1.0,3.0,37,0.00,,---,0.01,VWS V14.01,2013-05-04 22:55:00,
2013-05-04 17:57:00,70.1,43.3,29.82,SSE,154,2.0,2.0,38,0.00,,---,0.01,VWS V14.01,2013-05-04 22:57:00,
2013-05-04 17:59:00,70.1,43.3,29.82,SSE,155,0.0,0.0,38,0.00,,---,0.01,VWS V14.01,2013-05-04 22:59:00,
2013-05-04 18:00:00,70.1,44.0,29.82,SSE,155,0.0,0.0,39,0.00,,---,0.01,VWS V14.01,2013-05-04 23:00:00,
2013-05-04 18:01:00,70.1,44.7,29.82,SE,146,1.0,2.0,40,0.00,,---,0.01,VWS V14.01,2013-05-04 23:01:00,
2013-05-04 18:03:00,69.9,43.2,29.82,ESE,105,0.0,0.0,38,0.00,,---,0.01,VWS V14.01,2013-05-04 23:03:00,
2013-05-04 18:05:00,69.9,43.2,29.82,South,177,1.0,1.0,38,0.00,,---,0.01,VWS V14.01,2013-05-04 23:05:00,
2013-05-04 18:06:00,69.8,43.1,29.82,ESE,123,1.0,2.0,38,0.00,,---,0.01,VWS V14.01,2013-05-04 23:06:00,
2013-05-04 18:07:00,69.8,43.1,29.82,ESE,104,0.0,2.0,38,0.00,,---,0.01,VWS V14.01,2013-05-04 23:07:00,
2013-05-04 18:09:00,69.6,42.9,29.82,East,91,0.0,2.0,38,0.00,,---,0.01,VWS V14.01,2013-05-04 23:09:00,
2013-05-04 18:10:00,69.6,42.9,29.82,SE,137,1.0,3.0,38,0.00,,---,0.01,VWS V14.01,2013-05-04 23:10:00,
2013-05-04 18:11:00,69.6,42.2,29.82,SE,137,0.0,1.0,37,0.00,,---,0.01,VWS V14.01,2013-05-04 23:11:00,
2013-05-04 18:12:00,69.6,42.2,29.82,ESE,110,2.0,2.0,37,0.00,,---,0.01,VWS V14.01,2013-05-04 23:12:00,
2013-05-04 18:14:00,69.4,42.7,29.83,SE,136,0.0,2.0,38,0.00,,---,0.01,VWS V14.01,2013-05-04 23:14:00,
2013-05-04 18:16:00,69.4,42.7,29.83,SE,127,2.0,3.0,38,0.00,,---,0.01,VWS V14.01,2013-05-04 23:16:00,
2013-05-04 18:18:00,69.3,42.6,29.83,SE,141,3.0,4.0,38,0.00,,---,0.01,VWS V14.01,2013-05-04 23:18:00,
2013-05-04 18:19:00,69.3,42.6,29.83,SE,141,0.0,0.0,38,0.00,,---,0.01,VWS V14.01,2013-05-04 23:19:00,
2013-05-04 18:20:00,69.3,42.6,29.83,SE,141,0.0,0.0,38,0.00,,---,0.01,VWS V14.01,2013-05-04 23:20:00,
2013-05-04 18:22:00,69.3,43.3,29.83,SE,141,0.0,1.0,39,0.00,,---,0.01,VWS V14.01,2013-05-04 23:22:00,
2013-05-04 18:24:00,69.1,43.1,29.83,East,98,2.0,2.0,39,0.00,,---,0.01,VWS V14.01,2013-05-04 23:24:00,
2013-05-04 18:25:00,69.1,42.5,29.83,East,98,0.0,1.0,38,0.00,,---,0.01,VWS V14.01,2013-05-04 23:25:00,
2013-05-04 18:27:00,69.1,43.1,29.83,ESE,120,1.0,5.0,39,0.00,,---,0.01,VWS V14.01,2013-05-04 23:27:00,
2013-05-04 18:28:00,69.1,42.5,29.83,SE,130,0.0,1.0,38,0.00,,---,0.01,VWS V14.01,2013-05-04 23:28:00,
2013-05-04 18:29:00,69.1,42.5,29.83,ESE,123,2.0,2.0,38,0.00,,---,0.01,VWS V14.01,2013-05-04 23:29:00,
2013-05-04 18:30:00,69.3,42.6,29.83,ESE,123,0.0,1.0,38,0.00,,---,0.01,VWS V14.01,2013-05-04 23:30:00,
2013-05-04 18:33:00,69.3,42.6,29.83,SSE,161,0.0,1.0,38,0.00,,---,0.01,VWS V14.01,2013-05-04 23:33:00,
2013-05-04 18:34:00,69.3,42.6,29.83,SSE,161,0.0,0.0,38,0.00,,---,0.01,VWS V14.01,2013-05-04 23:34:00,
2013-05-04 18:35:00,69.3,43.3,29.83,SSE,161,0.0,0.0,39,0.00,,---,0.01,VWS V14.01,2013-05-04 23:35:00,
2013-05-04 18:40:00,69.1,42.5,29.83,SW,219,1.0,2.0,38,0.00,,---,0.01,VWS V14.01,2013-05-04 23:40:00,
2013-05-04 18:41:00,69.1,42.5,29.83,South,174,0.0,0.0,38,0.00,,---,0.01,VWS V14.01,2013-05-04 23:41:00,
2013-05-04 18:42:00,69.1,43.1,29.83,South,174,0.0,1.0,39,0.00,,---,0.01,VWS V14.01,2013-05-04 23:42:00,
2013-05-04 18:46:00,68.9,43.6,29.84,East,79,0.0,1.0,40,0.00,,---,0.01,VWS V14.01,2013-05-04 23:46:00,
2013-05-04 18:47:00,68.9,43.6,29.84,SE,129,1.0,1.0,40,0.00,,---,0.01,VWS V14.01,2013-05-04 23:47:00,
2013-05-04 18:48:00,68.8,42.9,29.84,SSE,153,0.0,1.0,39,0.00,,---,0.01,VWS V14.01,2013-05-04 23:48:00,
2013-05-04 18:49:00,68.8,42.9,29.84,SSE,153,0.0,0.0,39,0.00,,---,0.01,VWS V14.01,2013-05-04 23:49:00,
2013-05-04 18:52:00,68.6,44.0,29.84,South,172,0.0,2.0,41,0.00,,---,0.01,VWS V14.01,2013-05-04 23:52:00,
2013-05-04 18:53:00,68.6,44.0,29.84,SE,140,0.0,4.0,41,0.00,,---,0.01,VWS V14.01,2013-05-04 23:53:00,
2013-05-04 18:54:00,68.4,43.2,29.84,South,170,0.0,1.0,40,0.00,,---,0.01,VWS V14.01,2013-05-04 23:54:00,
2013-05-04 18:55:00,68.4,43.8,29.84,SSE,167,1.0,1.0,41,0.00,,---,0.01,VWS V14.01,2013-05-04 23:55:00,
2013-05-04 18:57:00,68.4,43.2,29.84,SSW,200,0.0,0.0,40,0.00,,---,0.01,VWS V14.01,2013-05-04 23:57:00,
2013-05-04 18:58:00,68.3,43.7,29.84,SSW,200,1.0,1.0,41,0.00,,---,0.01,VWS V14.01,2013-05-04 23:58:00,
2013-05-04 19:01:00,68.1,43.5,29.84,SW,222,0.0,0.0,41,0.00,,---,0.01,VWS V14.01,2013-05-05 00:01:00,
2013-05-04 19:02:00,68.1,43.5,29.84,SW,229,0.0,0.0,41,0.00,,---,0.01,VWS V14.01,2013-05-05 00:02:00,
2013-05-04 19:03:00,68.1,44.2,29.84,SW,229,0.0,0.0,42,0.00,,---,0.01,VWS V14.01,2013-05-05 00:03:00,
2013-05-04 19:06:00,67.9,44.0,29.84,South,169,0.0,0.0,42,0.00,,---,0.01,VWS V14.01,2013-05-05 00:06:00,
2013-05-04 19:07:00,67.9,43.4,29.84,South,169,0.0,0.0,41,0.00,,---,0.01,VWS V14.01,2013-05-05 00:07:00,
2013-05-04 19:08:00,67.8,43.3,29.84,South,169,0.0,0.0,41,0.00,,---,0.01,VWS V14.01,2013-05-05 00:08:00,
2013-05-04 19:09:00,67.8,43.3,29.84,SSE,164,0.0,2.0,41,0.00,,---,0.01,VWS V14.01,2013-05-05 00:09:00,
2013-05-04 19:11:00,67.6,43.7,29.84,SSE,164,0.0,0.0,42,0.00,,---,0.01,VWS V14.01,2013-05-05 00:11:00,
2013-05-04 19:12:00,67.6,43.7,29.84,SSE,164,0.0,0.0,42,0.00,,---,0.01,VWS V14.01,2013-05-05 00:12:00,
2013-05-04 19:14:00,67.4,42.9,29.84,SSE,164,0.0,0.0,41,0.00,,---,0.01,VWS V14.01,2013-05-05 00:14:00,
2013-05-04 19:16:00,67.4,43.5,29.84,SSE,164,0.0,0.0,42,0.00,,---,0.01,VWS V14.01,2013-05-05 00:16:00,
2013-05-04 19:17:00,67.4,43.5,29.84,SSE,164,0.0,0.0,42,0.00,,---,0.01,VWS V14.01,2013-05-05 00:17:00,
2013-05-04 19:20:00,67.1,43.9,29.84,SSE,164,0.0,0.0,43,0.00,,---,0.01,VWS V14.01,2013-05-05 00:20:00,
2013-05-04 19:21:00,67.1,44.5,29.84,SSE,164,0.0,0.0,44,0.00,,---,0.01,VWS V14.01,2013-05-05 00:21:00,
2013-05-04 19:23:00,66.9,43.7,29.84,SSE,161,0.0,2.0,43,0.00,,---,0.01,VWS V14.01,2013-05-05 00:23:00,
2013-05-04 19:25:00,66.8,43.0,29.84,SSE,164,0.0,0.0,42,0.00,,---,0.01,VWS V14.01,2013-05-05 00:25:00,
2013-05-04 19:26:00,66.8,43.6,29.84,SSE,164,0.0,0.0,43,0.00,,---,0.01,VWS V14.01,2013-05-05 00:26:00,
2013-05-04 19:28:00,66.6,44.0,29.84,SSE,164,0.0,0.0,44,0.00,,---,0.01,VWS V14.01,2013-05-05 00:28:00,
2013-05-04 19:30:00,66.4,43.8,29.85,SSE,164,0.0,0.0,44,0.00,,---,0.01,VWS V14.01,2013-05-05 00:30:00,
2013-05-04 19:31:00,66.4,43.8,29.85,SSE,164,0.0,0.0,44,0.00,,---,0.01,VWS V14.01,2013-05-05 00:31:00,
2013-05-04 19:33:00,66.3,43.8,29.85,SSE,164,0.0,0.0,44,0.00,,---,0.01,VWS V14.01,2013-05-05 00:33:00,
2013-05-04 19:34:00,66.3,43.8,29.85,SSE,164,0.0,0.0,44,0.00,,---,0.01,VWS V14.01,2013-05-05 00:34:00,
2013-05-04 19:37:00,66.0,43.5,29.85,SSE,164,0.0,0.0,44,0.00,,---,0.01,VWS V14.01,2013-05-05 00:37:00,
2013-05-04 19:38:00,65.8,43.3,29.85,SSE,164,0.0,0.0,44,0.00,,---,0.01,VWS V14.01,2013-05-05 00:38:00,
2013-05-04 19:39:00,65.8,43.3,29.85,SSE,164,0.0,0.0,44,0.00,,---,0.01,VWS V14.01,2013-05-05 00:39:00,
2013-05-04 19:40:00,65.6,43.1,29.85,SSE,164,0.0,0.0,44,0.00,,---,0.01,VWS V14.01,2013-05-05 00:40:00,
2013-05-04 19:41:00,65.5,43.6,29.85,SSE,164,0.0,0.0,45,0.00,,---,0.01,VWS V14.01,2013-05-05 00:41:00,
2013-05-04 19:42:00,65.5,43.6,29.85,SSE,164,0.0,0.0,45,0.00,,---,0.01,VWS V14.01,2013-05-05 00:42:00,
2013-05-04 19:44:00,65.2,43.9,29.86,SSE,164,0.0,0.0,46,0.00,,---,0.01,VWS V14.01,2013-05-05 00:44:00,
2013-05-04 19:45:00,65.0,43.7,29.86,SSE,164,0.0,0.0,46,0.00,,---,0.01,VWS V14.01,2013-05-05 00:45:00,
2013-05-04 19:47:00,64.7,44.0,29.86,SSE,164,0.0,0.0,47,0.00,,---,0.01,VWS V14.01,2013-05-05 00:47:00,
2013-05-04 19:48:00,64.7,44.0,29.86,SSE,164,0.0,0.0,47,0.00,,---,0.01,VWS V14.01,2013-05-05 00:48:00,
2013-05-04 19:50:00,64.3,44.8,29.86,SSE,164,0.0,0.0,49,0.00,,---,0.01,VWS V14.01,2013-05-05 00:50:00,
2013-05-04 19:52:00,64.0,44.5,29.86,SSE,164,0.0,0.0,49,0.00,,---,0.01,VWS V14.01,2013-05-05 00:52:00,
2013-05-04 19:53:00,63.9,44.4,29.86,SSE,164,0.0,0.0,49,0.00,,---,0.01,VWS V14.01,2013-05-05 00:53:00,
2013-05-04 19:56:00,63.4,44.5,29.86,SSE,164,0.0,0.0,50,0.00,,---,0.01,VWS V14.01,2013-05-05 00:56:00,
2013-05-04 19:59:00,63.2,44.8,29.86,SSE,164,0.0,0.0,51,0.00,,---,0.01,VWS V14.01,2013-05-05 00:59:00,
2013-05-04 20:00:00,63.1,44.2,29.86,SSE,164,0.0,0.0,50,0.00,,---,0.01,VWS V14.01,2013-05-05 01:00:00,
2013-05-04 20:02:00,62.7,44.3,29.86,SSE,164,0.0,0.0,51,0.00,,---,0.01,VWS V14.01,2013-05-05 01:02:00,
2013-05-04 20:04:00,62.6,44.2,29.86,SSE,164,0.0,0.0,51,0.00,,---,0.01,VWS V14.01,2013-05-05 01:04:00,
2013-05-04 20:06:00,62.3,44.0,29.86,SSE,164,0.0,0.0,51,0.00,,---,0.01,VWS V14.01,2013-05-05 01:06:00,
2013-05-04 20:09:00,62.0,44.2,29.86,SSE,164,0.0,0.0,52,0.00,,---,0.01,VWS V14.01,2013-05-05 01:09:00,
2013-05-04 20:10:00,61.8,44.0,29.86,SSE,164,0.0,0.0,52,0.00,,---,0.01,VWS V14.01,2013-05-05 01:10:00,
2013-05-04 20:11:00,61.6,43.8,29.86,SSE,164,0.0,0.0,52,0.00,,---,0.01,VWS V14.01,2013-05-05 01:11:00,
2013-05-04 20:12:00,61.6,44.3,29.86,SSE,164,0.0,0.0,53,0.00,,---,0.01,VWS V14.01,2013-05-05 01:12:00,
2013-05-04 20:15:00,61.3,44.0,29.87,SSE,164,0.0,0.0,53,0.00,,---,0.01,VWS V14.01,2013-05-05 01:15:00,
2013-05-04 20:17:00,61.0,44.2,29.87,SSE,164,0.0,0.0,54,0.00,,---,0.01,VWS V14.01,2013-05-05 01:17:00,
2013-05-04 20:18:00,60.9,44.6,29.87,SSE,164,0.0,0.0,55,0.00,,---,0.01,VWS V14.01,2013-05-05 01:18:00,
2013-05-04 20:21:00,60.5,44.7,29.87,SSE,164,0.0,0.0,56,0.00,,---,0.01,VWS V14.01,2013-05-05 01:21:00,
2013-05-04 20:22:00,60.5,45.2,29.87,SSE,164,0.0,0.0,57,0.00,,---,0.01,VWS V14.01,2013-05-05 01:22:00,
2013-05-04 20:23:00,60.4,45.1,29.87,SSE,164,0.0,0.0,57,0.00,,---,0.01,VWS V14.01,2013-05-05 01:23:00,
2013-05-04 20:24:00,60.1,45.3,29.87,SSE,164,0.0,0.0,58,0.00,,---,0.01,VWS V14.01,2013-05-05 01:24:00,
2013-05-04 20:27:00,59.8,45.0,29.87,West,259,0.0,2.0,58,0.00,,---,0.01,VWS V14.01,2013-05-05 01:27:00,
2013-05-04 20:28:00,59.6,44.8,29.87,West,259,0.0,0.0,58,0.00,,---,0.01,VWS V14.01,2013-05-05 01:28:00,
2013-05-04 20:29:00,59.6,44.8,29.88,West,259,0.0,0.0,58,0.00,,---,0.01,VWS V14.01,2013-05-05 01:29:00,
2013-05-04 20:30:00,59.5,45.2,29.88,West,259,0.0,0.0,59,0.00,,---,0.01,VWS V14.01,2013-05-05 01:30:00,
2013-05-04 20:31:00,59.5,45.2,29.88,West,259,0.0,0.0,59,0.00,,---,0.01,VWS V14.01,2013-05-05 01:31:00,
2013-05-04 20:32:00,59.3,45.0,29.88,West,259,0.0,0.0,59,0.00,,---,0.01,VWS V14.01,2013-05-05 01:32:00,
2013-05-04 20:35:00,59.2,44.9,29.88,West,259,1.0,1.0,59,0.00,,---,0.01,VWS V14.01,2013-05-05 01:35:00,
2013-05-04 20:36:00,59.2,44.9,29.88,West,259,0.0,0.0,59,0.00,,---,0.01,VWS V14.01,2013-05-05 01:36:00,
2013-05-04 20:37:00,59.2,44.9,29.88,West,259,0.0,0.0,59,0.00,,---,0.01,VWS V14.01,2013-05-05 01:37:00,
2013-05-04 20:39:00,59.0,45.2,29.88,WSW,250,0.0,2.0,60,0.00,,---,0.01,VWS V14.01,2013-05-05 01:39:00,
2013-05-04 20:40:00,59.0,45.2,29.88,WSW,250,0.0,0.0,60,0.00,,---,0.01,VWS V14.01,2013-05-05 01:40:00,
2013-05-04 20:41:00,59.0,44.7,29.88,WSW,250,0.0,0.0,59,0.00,,---,0.01,VWS V14.01,2013-05-05 01:41:00,
2013-05-04 20:42:00,59.2,45.3,29.88,WSW,250,0.0,0.0,60,0.00,,---,0.01,VWS V14.01,2013-05-05 01:42:00,
2013-05-04 20:45:00,59.2,46.2,29.89,WSW,250,0.0,0.0,62,0.00,,---,0.01,VWS V14.01,2013-05-05 01:45:00,
2013-05-04 20:46:00,59.3,46.3,29.89,WNW,290,1.0,1.0,62,0.00,,---,0.01,VWS V14.01,2013-05-05 01:46:00,
2013-05-04 20:48:00,59.3,47.5,29.89,WNW,290,0.0,0.0,65,0.00,,---,0.01,VWS V14.01,2013-05-05 01:48:00,
2013-05-04 20:50:00,59.5,48.2,29.89,WNW,290,0.0,0.0,66,0.00,,---,0.01,VWS V14.01,2013-05-05 01:50:00,
2013-05-04 20:52:00,59.6,49.0,29.89,WNW,290,0.0,2.0,68,0.00,,---,0.01,VWS V14.01,2013-05-05 01:52:00,
2013-05-04 20:53:00,59.6,49.0,29.89,WNW,290,0.0,0.0,68,0.00,,---,0.01,VWS V14.01,2013-05-05 01:53:00,
2013-05-04 20:54:00,59.6,49.0,29.89,WNW,290,0.0,0.0,68,0.00,,---,0.01,VWS V14.01,2013-05-05 01:54:00,
2013-05-04 20:55:00,59.6,49.4,29.89,WNW,290,0.0,0.0,69,0.00,,---,0.01,VWS V14.01,2013-05-05 01:55:00,
2013-05-04 20:57:00,59.6,49.4,29.89,WNW,290,0.0,0.0,69,0.00,,---,0.01,VWS V14.01,2013-05-05 01:57:00,
2013-05-04 20:58:00,59.6,49.8,29.89,WNW,290,0.0,0.0,70,0.00,,---,0.01,VWS V14.01,2013-05-05 01:58:00,
2013-05-04 20:59:00,59.6,49.8,29.90,WNW,290,1.0,1.0,70,0.00,,---,0.01,VWS V14.01,2013-05-05 01:59:00,
2013-05-04 21:00:00,59.6,49.8,29.90,WNW,289,0.0,1.0,70,0.00,,---,0.01,VWS V14.01,2013-05-05 02:00:00,
2013-05-04 21:03:00,59.5,50.1,29.90,WNW,290,0.0,1.0,71,0.00,,---,0.01,VWS V14.01,2013-05-05 02:03:00,
2013-05-04 21:05:00,59.5,50.5,29.90,West,271,2.0,2.0,72,0.00,,---,0.01,VWS V14.01,2013-05-05 02:05:00,
2013-05-04 21:06:00,59.5,50.5,29.90,West,271,0.0,2.0,72,0.00,,---,0.01,VWS V14.01,2013-05-05 02:06:00,
2013-05-04 21:08:00,59.5,50.5,29.90,West,271,1.0,1.0,72,0.00,,---,0.01,VWS V14.01,2013-05-05 02:08:00,
2013-05-04 21:10:00,59.5,50.5,29.90,West,271,1.0,1.0,72,0.00,,---,0.01,VWS V14.01,2013-05-05 02:10:00,
2013-05-04 21:11:00,59.5,50.8,29.90,West,271,0.0,1.0,73,0.00,,---,0.01,VWS V14.01,2013-05-05 02:11:00,
2013-05-04 21:12:00,59.5,50.8,29.90,West,271,0.0,0.0,73,0.00,,---,0.01,VWS V14.01,2013-05-05 02:12:00,
2013-05-04 21:13:00,59.5,50.8,29.89,West,271,0.0,0.0,73,0.00,,---,0.01,VWS V14.01,2013-05-05 02:13:00,
2013-05-04 21:16:00,59.5,50.8,29.89,West,271,0.0,0.0,73,0.00,,---,0.01,VWS V14.01,2013-05-05 02:16:00,
2013-05-04 21:18:00,59.3,50.7,29.89,West,271,0.0,0.0,73,0.00,,---,0.01,VWS V14.01,2013-05-05 02:18:00,
2013-05-04 21:20:00,59.2,50.9,29.89,West,271,0.0,0.0,74,0.00,,---,0.01,VWS V14.01,2013-05-05 02:20:00,
2013-05-04 21:21:00,59.2,50.9,29.89,West,271,0.0,0.0,74,0.00,,---,0.01,VWS V14.01,2013-05-05 02:21:00,
2013-05-04 21:22:00,59.2,50.9,29.89,West,271,0.0,0.0,74,0.00,,---,0.01,VWS V14.01,2013-05-05 02:22:00,
2013-05-04 21:24:00,59.0,50.7,29.89,West,271,0.0,0.0,74,0.00,,---,0.01,VWS V14.01,2013-05-05 02:24:00,
2013-05-04 21:25:00,58.9,50.6,29.89,West,271,0.0,0.0,74,0.00,,---,0.01,VWS V14.01,2013-05-05 02:25:00,
2013-05-04 21:26:00,58.9,51.0,29.89,West,271,0.0,0.0,75,0.00,,---,0.01,VWS V14.01,2013-05-05 02:26:00,
2013-05-04 21:27:00,58.9,51.0,29.89,West,271,0.0,0.0,75,0.00,,---,0.01,VWS V14.01,2013-05-05 02:27:00,
2013-05-04 21:28:00,58.7,50.8,29.89,West,271,0.0,0.0,75,0.00,,---,0.01,VWS V14.01,2013-05-05 02:28:00,
2013-05-04 21:31:00,58.6,51.1,29.89,West,271,0.0,0.0,76,0.00,,---,0.01,VWS V14.01,2013-05-05 02:31:00,
2013-05-04 21:32:00,58.6,51.1,29.89,West,271,0.0,0.0,76,0.00,,---,0.01,VWS V14.01,2013-05-05 02:32:00,
2013-05-04 21:33:00,58.4,50.9,29.89,West,271,0.0,0.0,76,0.00,,---,0.01,VWS V14.01,2013-05-05 02:33:00,
2013-05-04 21:35:00,58.4,51.2,29.89,West,271,0.0,0.0,77,0.00,,---,0.01,VWS V14.01,2013-05-05 02:35:00,
2013-05-04 21:36:00,58.3,51.1,29.89,West,271,0.0,0.0,77,0.00,,---,0.01,VWS V14.01,2013-05-05 02:36:00,
2013-05-04 21:37:00,58.3,51.1,29.89,West,271,0.0,0.0,77,0.00,,---,0.01,VWS V14.01,2013-05-05 02:37:00,
2013-05-04 21:38:00,58.3,51.1,29.89,West,271,0.0,0.0,77,0.00,,---,0.01,VWS V14.01,2013-05-05 02:38:00,
2013-05-04 21:40:00,58.1,50.9,29.89,West,271,0.0,0.0,77,0.00,,---,0.01,VWS V14.01,2013-05-05 02:40:00,
2013-05-04 21:41:00,58.1,50.9,29.89,West,271,0.0,0.0,77,0.00,,---,0.01,VWS V14.01,2013-05-05 02:41:00,
2013-05-04 21:42:00,58.0,50.8,29.89,West,271,0.0,0.0,77,0.00,,---,0.01,VWS V14.01,2013-05-05 02:42:00,
2013-05-04 21:43:00,58.0,51.2,29.89,West,271,0.0,0.0,78,0.00,,---,0.01,VWS V14.01,2013-05-05 02:43:00,
2013-05-04 21:45:00,57.8,51.0,29.89,West,271,0.0,0.0,78,0.00,,---,0.01,VWS V14.01,2013-05-05 02:45:00,
2013-05-04 21:46:00,57.8,51.0,29.89,West,271,0.0,0.0,78,0.00,,---,0.01,VWS V14.01,2013-05-05 02:46:00,
2013-05-04 21:48:00,57.8,51.3,29.89,West,271,0.0,0.0,79,0.00,,---,0.01,VWS V14.01,2013-05-05 02:48:00,
2013-05-04 21:51:00,57.6,51.1,29.89,West,271,0.0,0.0,79,0.00,,---,0.01,VWS V14.01,2013-05-05 02:51:00,
2013-05-04 21:52:00,57.6,51.5,29.89,West,271,0.0,1.0,80,0.00,,---,0.01,VWS V14.01,2013-05-05 02:52:00,
2013-05-04 21:54:00,57.5,51.4,29.89,West,271,0.0,1.0,80,0.00,,---,0.01,VWS V14.01,2013-05-05 02:54:00,
2013-05-04 21:55:00,57.5,51.7,29.89,West,271,0.0,0.0,81,0.00,,---,0.01,VWS V14.01,2013-05-05 02:55:00,
2013-05-04 21:56:00,57.5,51.7,29.89,West,271,0.0,0.0,81,0.00,,---,0.01,VWS V14.01,2013-05-05 02:56:00,
2013-05-04 21:57:00,57.5,51.7,29.89,West,271,0.0,1.0,81,0.00,,---,0.01,VWS V14.01,2013-05-05 02:57:00,
2013-05-04 22:00:00,57.3,51.9,29.89,West,271,1.0,1.0,82,0.00,,---,0.01,VWS V14.01,2013-05-05 03:00:00,
2013-05-04 22:01:00,57.3,51.9,29.89,West,271,2.0,2.0,82,0.00,,---,0.01,VWS V14.01,2013-05-05 03:01:00,
2013-05-04 22:03:00,57.3,51.9,29.89,West,271,0.0,2.0,82,0.00,,---,0.01,VWS V14.01,2013-05-05 03:03:00,
2013-05-04 22:04:00,57.3,51.9,29.89,West,271,0.0,0.0,82,0.00,,---,0.01,VWS V14.01,2013-05-05 03:04:00,
2013-05-04 22:05:00,57.2,52.1,29.89,West,271,0.0,1.0,83,0.00,,---,0.01,VWS V14.01,2013-05-05 03:05:00,
2013-05-04 22:07:00,57.2,52.1,29.89,West,271,0.0,0.0,83,0.00,,---,0.01,VWS V14.01,2013-05-05 03:07:00,
2013-05-04 22:09:00,57.2,52.1,29.89,West,271,0.0,1.0,83,0.00,,---,0.01,VWS V14.01,2013-05-05 03:09:00,
2013-05-04 22:10:00,57.2,52.1,29.89,West,271,0.0,0.0,83,0.00,,---,0.01,VWS V14.01,2013-05-05 03:10:00,
2013-05-04 22:11:00,57.2,52.1,29.89,WSW,245,1.0,1.0,83,0.00,,---,0.01,VWS V14.01,2013-05-05 03:11:00,
2013-05-04 22:12:00,57.2,52.1,29.89,WSW,240,0.0,0.0,83,0.00,,---,0.01,VWS V14.01,2013-05-05 03:12:00,
2013-05-04 22:14:00,57.3,51.9,29.89,WSW,240,0.0,0.0,82,0.00,,---,0.01,VWS V14.01,2013-05-05 03:14:00,
2013-05-04 22:16:00,57.3,51.9,29.89,WSW,240,0.0,1.0,82,0.00,,---,0.01,VWS V14.01,2013-05-05 03:16:00,
2013-05-04 22:17:00,57.3,51.9,29.89,WSW,240,0.0,0.0,82,0.00,,---,0.01,VWS V14.01,2013-05-05 03:17:00,
2013-05-04 22:19:00,57.2,51.8,29.89,WSW,240,0.0,0.0,82,0.00,,---,0.01,VWS V14.01,2013-05-05 03:19:00,
2013-05-04 22:21:00,57.2,51.8,29.89,WSW,240,0.0,0.0,82,0.00,,---,0.01,VWS V14.01,2013-05-05 03:21:00,
2013-05-04 22:23:00,57.2,51.8,29.89,WSW,240,0.0,0.0,82,0.00,,---,0.01,VWS V14.01,2013-05-05 03:23:00,
2013-05-04 22:24:00,57.2,52.1,29.89,WSW,240,0.0,0.0,83,0.00,,---,0.01,VWS V14.01,2013-05-05 03:24:00,
2013-05-04 22:26:00,57.0,51.9,29.89,WSW,240,0.0,0.0,83,0.00,,---,0.01,VWS V14.01,2013-05-05 03:26:00,
2013-05-04 22:27:00,57.0,51.9,29.89,WSW,240,0.0,0.0,83,0.00,,---,0.01,VWS V14.01,2013-05-05 03:27:00,
2013-05-04 22:28:00,57.0,51.9,29.89,WSW,240,0.0,0.0,83,0.00,,---,0.01,VWS V14.01,2013-05-05 03:28:00,
2013-05-04 22:30:00,57.0,51.9,29.89,WSW,240,0.0,0.0,83,0.00,,---,0.01,VWS V14.01,2013-05-05 03:30:00,
2013-05-04 22:31:00,57.0,51.9,29.89,WSW,240,0.0,0.0,83,0.00,,---,0.01,VWS V14.01,2013-05-05 03:31:00,
2013-05-04 22:32:00,57.0,51.9,29.89,WSW,240,0.0,0.0,83,0.00,,---,0.01,VWS V14.01,2013-05-05 03:32:00,
2013-05-04 22:34:00,56.9,51.8,29.89,WSW,240,0.0,0.0,83,0.00,,---,0.01,VWS V14.01,2013-05-05 03:34:00,
2013-05-04 22:36:00,56.9,51.8,29.89,WSW,240,0.0,0.0,83,0.00,,---,0.01,VWS V14.01,2013-05-05 03:36:00,
2013-05-04 22:37:00,56.7,51.6,29.89,WSW,240,0.0,0.0,83,0.00,,---,0.01,VWS V14.01,2013-05-05 03:37:00,
2013-05-04 22:39:00,56.7,51.6,29.89,WSW,240,0.0,0.0,83,0.00,,---,0.01,VWS V14.01,2013-05-05 03:39:00,
2013-05-04 22:41:00,56.6,51.8,29.89,WSW,240,0.0,0.0,84,0.00,,---,0.01,VWS V14.01,2013-05-05 03:41:00,
2013-05-04 22:42:00,56.6,51.8,29.89,WSW,240,0.0,0.0,84,0.00,,---,0.01,VWS V14.01,2013-05-05 03:42:00,
2013-05-04 22:44:00,56.6,51.8,29.88,WSW,240,0.0,1.0,84,0.00,,---,0.01,VWS V14.01,2013-05-05 03:44:00,
2013-05-04 22:45:00,56.6,51.8,29.88,WSW,240,0.0,0.0,84,0.00,,---,0.01,VWS V14.01,2013-05-05 03:45:00,
2013-05-04 22:49:00,56.5,51.7,29.88,WSW,240,0.0,0.0,84,0.00,,---,0.01,VWS V14.01,2013-05-05 03:49:00,
2013-05-04 22:50:00,56.5,51.7,29.88,WSW,240,0.0,0.0,84,0.00,,---,0.01,VWS V14.01,2013-05-05 03:50:00,
2013-05-04 22:51:00,56.5,51.7,29.88,WSW,240,0.0,0.0,84,0.00,,---,0.01,VWS V14.01,2013-05-05 03:51:00,
2013-05-04 22:54:00,56.3,51.9,29.88,WSW,240,0.0,0.0,85,0.00,,---,0.01,VWS V14.01,2013-05-05 03:54:00,
2013-05-04 22:56:00,56.2,51.8,29.88,WSW,240,0.0,0.0,85,0.00,,---,0.01,VWS V14.01,2013-05-05 03:56:00,
2013-05-04 22:58:00,56.2,51.8,29.88,WSW,240,0.0,0.0,85,0.00,,---,0.01,VWS V14.01,2013-05-05 03:58:00,
2013-05-04 22:59:00,56.0,51.6,29.88,WSW,240,0.0,0.0,85,0.00,,---,0.01,VWS V14.01,2013-05-05 03:59:00,
2013-05-04 23:00:00,56.0,51.6,29.88,WSW,240,0.0,0.0,85,0.00,,---,0.01,VWS V14.01,2013-05-05 04:00:00,
2013-05-04 23:01:00,56.0,51.9,29.88,WSW,240,0.0,0.0,86,0.00,,---,0.01,VWS V14.01,2013-05-05 04:01:00,
2013-05-04 23:02:00,55.9,51.8,29.88,WSW,240,0.0,0.0,86,0.00,,---,0.01,VWS V14.01,2013-05-05 04:02:00,
2013-05-04 23:03:00,55.9,51.8,29.88,WSW,240,0.0,0.0,86,0.00,,---,0.01,VWS V14.01,2013-05-05 04:03:00,
2013-05-04 23:06:00,55.7,51.6,29.88,WSW,240,0.0,0.0,86,0.00,,---,0.01,VWS V14.01,2013-05-05 04:06:00,
2013-05-04 23:07:00,55.7,51.6,29.88,WSW,240,0.0,0.0,86,0.00,,---,0.01,VWS V14.01,2013-05-05 04:07:00,
2013-05-04 23:09:00,55.7,51.6,29.88,WSW,240,0.0,0.0,86,0.00,,---,0.01,VWS V14.01,2013-05-05 04:09:00,
2013-05-04 23:13:00,55.7,51.9,29.88,WSW,240,0.0,0.0,87,0.00,,---,0.01,VWS V14.01,2013-05-05 04:13:00,
2013-05-04 23:15:00,55.6,51.8,29.88,WSW,240,0.0,0.0,87,0.00,,---,0.01,VWS V14.01,2013-05-05 04:15:00,
2013-05-04 23:16:00,55.6,51.8,29.88,WSW,240,0.0,0.0,87,0.00,,---,0.01,VWS V14.01,2013-05-05 04:16:00,
2013-05-04 23:18:00,55.6,51.8,29.88,WSW,240,0.0,0.0,87,0.00,,---,0.01,VWS V14.01,2013-05-05 04:18:00,
2013-05-04 23:21:00,55.4,51.6,29.88,WSW,240,0.0,0.0,87,0.00,,---,0.01,VWS V14.01,2013-05-05 04:21:00,
2013-05-04 23:22:00,55.4,51.6,29.88,WSW,240,0.0,0.0,87,0.00,,---,0.01,VWS V14.01,2013-05-05 04:22:00,
2013-05-04 23:23:00,55.4,51.6,29.88,WSW,240,0.0,0.0,87,0.00,,---,0.01,VWS V14.01,2013-05-05 04:23:00,
2013-05-04 23:27:00,55.3,51.5,29.88,WSW,240,0.0,0.0,87,0.00,,---,0.01,VWS V14.01,2013-05-05 04:27:00,
2013-05-04 23:28:00,55.3,51.5,29.88,WSW,240,0.0,0.0,87,0.00,,---,0.01,VWS V14.01,2013-05-05 04:28:00,
2013-05-04 23:33:00,55.1,51.6,29.89,WSW,240,0.0,0.0,88,0.00,,---,0.01,VWS V14.01,2013-05-05 04:33:00,
2013-05-04 23:34:00,55.1,51.6,29.89,WSW,240,0.0,0.0,88,0.00,,---,0.01,VWS V14.01,2013-05-05 04:34:00,
2013-05-04 23:35:00,55.1,51.6,29.89,WSW,240,0.0,0.0,88,0.00,,---,0.01,VWS V14.01,2013-05-05 04:35:00,
2013-05-04 23:38:00,55.0,51.2,29.89,WSW,240,0.0,0.0,87,0.00,,---,0.01,VWS V14.01,2013-05-05 04:38:00,
2013-05-04 23:39:00,55.0,51.2,29.89,WSW,240,0.0,0.0,87,0.00,,---,0.01,VWS V14.01,2013-05-05 04:39:00,
2013-05-04 23:41:00,55.0,51.2,29.89,WSW,240,0.0,0.0,87,0.00,,---,0.01,VWS V14.01,2013-05-05 04:41:00,
2013-05-04 23:44:00,54.8,51.0,29.89,WSW,240,1.0,1.0,87,0.00,,---,0.01,VWS V14.01,2013-05-05 04:44:00,
2013-05-04 23:46:00,54.8,51.0,29.89,WSW,240,0.0,0.0,87,0.00,,---,0.01,VWS V14.01,2013-05-05 04:46:00,
2013-05-04 23:47:00,54.7,50.6,29.89,WSW,240,0.0,0.0,86,0.00,,---,0.01,VWS V14.01,2013-05-05 04:47:00,
2013-05-04 23:51:00,54.7,50.6,29.89,WSW,240,0.0,0.0,86,0.00,,---,0.01,VWS V14.01,2013-05-05 04:51:00,
2013-05-04 23:52:00,54.7,50.6,29.89,WSW,240,0.0,0.0,86,0.00,,---,0.01,VWS V14.01,2013-05-05 04:52:00,
2013-05-04 23:53:00,54.7,50.6,29.89,WSW,240,0.0,0.0,86,0.00,,---,0.01,VWS V14.01,2013-05-05 04:53:00,
2013-05-04 23:54:00,54.5,50.4,29.89,WSW,240,0.0,0.0,86,0.00,,---,0.01,VWS V14.01,2013-05-05 04:54:00,
2013-05-04 23:58:00,54.4,50.3,29.89,WSW,240,0.0,0.0,86,0.00,,---,0.01,VWS V14.01,2013-05-05 04:58:00,
2013-05-04 23:59:00,54.4,50.3,29.89,WSW,240,0.0,0.0,86,0.00,,---,0.01,VWS V14.01,2013-05-05 04:59:00,